M I D A S
Marine Information and Data Acquisition System
Tripno 1641 of the Zeeleeuw from 2009-02-06 08:09:41 to 2009-02-06 17:33:33
Back to CruiseResearch ActivitiesStationsMapUnderway DataData graphs

EquipmentUnitsComment
TimeDGPSUTC
LatitudeDGPSDM.mWGS84
LongitudeDGPSDM.mWGS84
TemperatureSBE03/SBE38deg celciusITS90
ConductivitySBE21S/mITS90
SalinitySBE21 Practical Salinity Units
ChlorophylAChelsea fluorimeterg/lCalibrated in Aceton
Missing or incorrect values are displayed as -999
Sea surface data collected by the RV Zeeleeuw from 2009-02-06 08:03:12 to 2009-02-06 17:39:24
                                                                                    Next 1000 lines
Time Latitude Longitude Temperature Conductivity Salinity ChlorophylA
2009-02-06 08:03:23 51°13.662 2°55.956 -999 0.029962 0.16437 -1.453281
2009-02-06 08:03:28 51°13.663 2°55.953 -999 0.029962 0.16437 -1.453281
2009-02-06 08:03:32 51°13.664 2°55.951 -999 0.029859 0.163799 -1.418457
2009-02-06 08:03:38 51°13.665 2°55.947 -999 0.029859 0.163794 -1.418457
2009-02-06 08:03:43 51°13.666 2°55.943 -999 0.029859 0.163794 -1.453281
2009-02-06 08:03:48 51°13.668 2°55.938 -999 0.029859 0.163794 -1.453281
2009-02-06 08:03:53 51°13.67 2°55.932 -999 0.029859 0.163794 -1.453281
2009-02-06 08:03:58 51°13.672 2°55.926 -999 0.029859 0.163794 -1.453281
2009-02-06 08:04:03 51°13.674 2°55.92 -999 0.029859 0.163799 -1.453281
2009-02-06 08:04:08 51°13.677 2°55.914 -999 0.029859 0.163802 -1.418457
2009-02-06 08:04:13 51°13.679 2°55.907 -999 0.029859 0.163805 -1.453281
2009-02-06 08:04:18 51°13.681 2°55.901 -999 0.029859 0.163805 -1.418457
2009-02-06 08:04:23 51°13.683 2°55.894 -999 0.029859 0.163805 -1.453281
2009-02-06 08:04:28 51°13.685 2°55.887 -999 0.029859 0.163805 -1.453281
2009-02-06 08:04:33 51°13.686 2°55.88 -999 0.029859 0.163805 -1.453281
2009-02-06 08:04:38 51°13.688 2°55.873 -999 0.029859 0.163805 -1.453281
2009-02-06 08:04:43 51°13.69 2°55.866 -999 0.029859 0.163802 -1.418457
2009-02-06 08:04:48 51°13.692 2°55.858 -999 0.029859 0.163802 -1.418457
2009-02-06 08:04:53 51°13.693 2°55.851 -999 0.029859 0.163802 -1.453281
2009-02-06 08:04:58 51°13.695 2°55.843 -999 0.029859 0.163802 -1.453281
2009-02-06 08:05:03 51°13.696 2°55.835 -999 0.029859 0.163799 -1.418457
2009-02-06 08:05:08 51°13.697 2°55.827 -999 0.029859 0.163802 -1.453281
2009-02-06 08:05:13 51°13.698 2°55.818 -999 0.029859 0.163802 -1.453281
2009-02-06 08:05:18 51°13.699 2°55.809 -999 0.029859 0.163802 -1.418457
2009-02-06 08:05:23 51°13.7 2°55.8 -999 0.029859 0.163802 -1.418457
2009-02-06 08:05:28 51°13.701 2°55.791 -999 0.029859 0.163802 -1.418457
2009-02-06 08:05:33 51°13.701 2°55.783 -999 0.029859 0.163805 -1.453281
2009-02-06 08:05:38 51°13.701 2°55.774 -999 0.029859 0.163805 -1.418457
2009-02-06 08:05:43 51°13.701 2°55.767 -999 0.029859 0.163805 -1.453281
2009-02-06 08:05:48 51°13.701 2°55.759 -999 0.029859 0.163802 -1.453281
2009-02-06 08:05:53 51°13.701 2°55.753 -999 0.029859 0.163796 -1.418457
2009-02-06 08:05:58 51°13.701 2°55.747 -999 0.029859 0.163796 -1.418457
2009-02-06 08:06:03 51°13.701 2°55.742 -999 0.029859 0.163796 -1.418457
2009-02-06 08:06:08 51°13.701 2°55.739 -999 0.029859 0.163796 -1.453281
2009-02-06 08:06:12 51°13.701 2°55.737 -999 0.029859 0.163799 -1.453281
2009-02-06 08:06:18 51°13.702 2°55.737 -999 0.029962 0.164373 -1.453281
2009-02-06 08:06:23 51°13.704 2°55.739 -999 0.029962 0.164385 -1.418457
2009-02-06 08:06:28 51°13.706 2°55.742 -999 0.029962 0.164385 -1.418457
2009-02-06 08:06:32 51°13.708 2°55.744 -999 0.029859 0.163822 -1.453281
2009-02-06 08:06:38 51°13.712 2°55.746 -999 0.029756 0.163256 -1.418457
2009-02-06 08:06:43 51°13.715 2°55.748 -999 0.028418 0.155837 -1.453281
2009-02-06 08:06:48 51°13.717 2°55.749 -999 0.027183 0.148978 -1.418457
2009-02-06 08:06:53 51°13.719 2°55.749 -999 0.027801 0.152353 -1.453281
2009-02-06 08:06:58 51°13.72 2°55.749 -999 0.027801 0.152353 -1.453281
2009-02-06 08:07:03 51°13.72 2°55.749 -999 0.027492 0.150646 -1.453281
2009-02-06 08:07:07 51°13.72 2°55.749 -999 0.026257 0.143855 -1.418457
2009-02-06 08:07:13 51°13.718 2°55.749 -999 0.026257 0.143833 -1.418457
2009-02-06 08:07:18 51°13.717 2°55.749 -999 0.026669 0.146097 -1.453281
2009-02-06 08:07:23 51°13.716 2°55.749 -999 0.02708 0.148383 -1.418457
2009-02-06 08:07:27 51°13.715 2°55.748 -999 0.02708 0.148383 -1.418457
2009-02-06 08:07:33 51°13.714 2°55.748 -999 0.027389 0.150101 -1.418457
2009-02-06 08:07:38 51°13.714 2°55.748 -999 0.027698 0.151818 -1.418457
2009-02-06 08:07:43 51°13.715 2°55.748 -999 0.02811 0.154096 -1.453281
2009-02-06 08:07:48 51°13.715 2°55.747 -999 0.028212 0.15467 -1.453281
2009-02-06 08:07:53 51°13.716 2°55.746 -999 0.02811 0.154106 -1.453281
2009-02-06 08:07:58 51°13.718 2°55.744 -999 0.02811 0.154106 -1.453281
2009-02-06 08:08:03 51°13.721 2°55.742 -999 0.02811 0.154098 -1.453281
2009-02-06 08:08:08 51°13.723 2°55.739 -999 0.02811 0.154096 -1.418457
2009-02-06 08:08:13 51°13.727 2°55.736 -999 0.028007 0.153524 -1.418457
2009-02-06 08:08:18 51°13.731 2°55.732 -999 0.028007 0.153519 -1.453281
2009-02-06 08:08:23 51°13.736 2°55.727 -999 0.028007 0.153516 -1.453281
2009-02-06 08:08:28 51°13.741 2°55.721 -999 0.028007 0.153516 -1.453281
2009-02-06 08:08:33 51°13.747 2°55.715 -999 0.027698 0.151813 -1.418457
2009-02-06 08:08:38 51°13.753 2°55.709 -999 0.027698 0.151811 -1.453281
2009-02-06 08:08:43 51°13.76 2°55.702 -999 0.027698 0.151813 -1.418457
2009-02-06 08:08:48 51°13.767 2°55.695 -999 0.026978 0.147851 -1.453281
2009-02-06 08:08:52 51°13.773 2°55.689 -999 0.026875 0.147281 -1.453281
2009-02-06 08:08:58 51°13.782 2°55.679 -999 0.026875 0.147281 -1.453281
2009-02-06 08:09:03 51°13.791 2°55.671 -999 0.027492 0.150682 -1.453281
2009-02-06 08:09:08 51°13.8 2°55.663 -999 0.026772 0.146726 -1.453281
2009-02-06 08:09:13 51°13.809 2°55.654 -999 0.026875 0.147286 -1.418457
2009-02-06 08:09:18 51°13.818 2°55.645 -999 0.026257 0.143884 -1.418457
2009-02-06 08:09:23 51°13.828 2°55.637 -999 0.02636 0.144444 -1.418457
2009-02-06 08:09:27 51°13.836 2°55.63 -999 0.02636 0.144444 -1.418457
2009-02-06 08:09:33 51°13.849 2°55.62 -999 0.02636 0.144444 -1.453281
2009-02-06 08:09:38 51°13.86 2°55.611 -999 0.026463 0.145005 -1.453281
2009-02-06 08:09:43 51°13.871 2°55.603 -999 0.026257 0.143884 -1.453281
2009-02-06 08:09:47 51°13.879 2°55.596 -999 0.026463 0.145008 -1.453281
2009-02-06 08:09:53 51°13.893 2°55.587 -999 0.026257 0.143884 -1.418457
2009-02-06 08:09:58 51°13.904 2°55.578 -999 0.026257 0.143884 -1.418457
2009-02-06 08:10:03 51°13.915 2°55.57 -999 0.026154 0.143315 -1.418457
2009-02-06 08:10:08 51°13.927 2°55.561 -999 0.026257 0.143882 -1.453281
2009-02-06 08:10:12 51°13.936 2°55.554 -999 0.025846 0.141619 -1.453281
2009-02-06 08:10:18 51°13.95 2°55.545 -999 0.026154 0.143301 -1.453281
2009-02-06 08:10:23 51°13.962 2°55.536 -999 0.026051 0.142744 -1.453281
2009-02-06 08:10:28 51°13.974 2°55.527 -999 0.026051 0.142744 -1.453281
2009-02-06 08:10:33 51°13.986 2°55.519 -999 0.025743 0.141049 -1.453281
2009-02-06 08:10:38 51°13.998 2°55.511 -999 0.025846 0.14161 -1.453281
2009-02-06 08:10:43 51°14.01 2°55.502 -999 0.025846 0.141612 -1.418457
2009-02-06 08:10:48 51°14.022 2°55.494 -999 0.025743 0.141049 -1.453281
2009-02-06 08:10:52 51°14.032 2°55.486 -999 0.025537 0.13992 -1.453281
2009-02-06 08:10:58 51°14.046 2°55.476 -999 0.025537 0.13992 -1.453281
2009-02-06 08:11:03 51°14.058 2°55.467 -999 0.025743 0.141044 -1.418457
2009-02-06 08:11:08 51°14.07 2°55.458 -999 0.025331 0.138796 -1.453281
2009-02-06 08:11:13 51°14.082 2°55.449 -999 0.025331 0.13878 -1.453281
2009-02-06 08:11:18 51°14.094 2°55.44 -999 0.026566 0.145572 -1.453281
2009-02-06 08:11:23 51°14.106 2°55.431 -999 0.025949 0.142202 -1.453281
2009-02-06 08:11:28 51°14.118 2°55.421 -999 0.025949 0.142202 -1.453281
2009-02-06 08:11:33 51°14.13 2°55.411 -999 0.025743 0.141061 -1.453281
2009-02-06 08:11:38 51°14.142 2°55.401 -999 0.025743 0.141061 -1.453281
2009-02-06 08:11:43 51°14.153 2°55.391 -999 0.025846 0.141627 -1.453281
2009-02-06 08:11:47 51°14.162 2°55.382 -999 0.02564 0.140497 -1.453281
2009-02-06 08:11:53 51°14.176 2°55.369 -999 0.026257 0.143892 -1.418457
2009-02-06 08:11:58 51°14.187 2°55.357 -999 0.026257 0.143892 -1.418457
2009-02-06 08:12:03 51°14.197 2°55.344 -999 0.026257 0.143904 -1.418457
2009-02-06 08:12:08 51°14.208 2°55.332 -999 0.025949 0.142212 -1.418457
2009-02-06 08:12:13 51°14.219 2°55.319 -999 0.025949 0.142207 -1.453281
2009-02-06 08:12:18 51°14.229 2°55.305 -999 0.025743 0.141082 -1.418457
2009-02-06 08:12:23 51°14.238 2°55.291 -999 0.025949 0.1422 -1.453281
2009-02-06 08:12:28 51°14.248 2°55.277 -999 0.025949 0.1422 -1.453281
2009-02-06 08:12:33 51°14.257 2°55.262 -999 0.025949 0.142205 -1.418457
2009-02-06 08:12:38 51°14.267 2°55.247 -999 0.025537 0.139943 -1.418457
2009-02-06 08:12:43 51°14.276 2°55.232 -999 0.025434 0.139371 -1.418457
2009-02-06 08:12:48 51°14.285 2°55.216 -999 0.025331 0.138805 -1.418457
2009-02-06 08:12:52 51°14.292 2°55.203 -999 0.025228 0.138226 -1.418457
2009-02-06 08:12:58 51°14.304 2°55.183 -999 0.025228 0.138226 -1.418457
2009-02-06 08:13:03 51°14.313 2°55.167 -999 0.025331 0.138789 -1.418457
2009-02-06 08:13:08 51°14.322 2°55.15 -999 0.025331 0.138791 -1.453281
2009-02-06 08:13:12 51°14.329 2°55.136 -999 0.02564 0.140497 -1.453281
2009-02-06 08:13:18 51°14.34 2°55.115 -999 0.025125 0.13768 -1.453281
2009-02-06 08:13:23 51°14.349 2°55.096 -999 0.025022 0.13711 -1.453281
2009-02-06 08:13:28 51°14.357 2°55.078 -999 0.025022 0.13711 -1.453281
2009-02-06 08:13:33 51°14.366 2°55.059 -999 0.024919 0.136538 -1.418457
2009-02-06 08:13:38 51°14.376 2°55.041 -999 0.025743 0.141061 -1.418457
2009-02-06 08:13:43 51°14.385 2°55.023 -999 0.025125 0.137677 -1.453281
2009-02-06 08:13:48 51°14.395 2°55.006 -999 0.025743 0.141068 -1.418457
2009-02-06 08:13:53 51°14.405 2°54.989 -999 0.025743 0.141087 -1.453281
2009-02-06 08:13:58 51°14.415 2°54.971 -999 0.025743 0.141087 -1.453281
2009-02-06 08:14:03 51°14.424 2°54.952 -999 0.025228 0.138275 -1.453281
2009-02-06 08:14:07 51°14.43 2°54.936 -999 0.024199 0.132627 -1.453281
2009-02-06 08:14:13 51°14.441 2°54.914 -999 0.024096 0.132021 -1.418457
2009-02-06 08:14:18 51°14.451 2°54.895 -999 0.024508 0.13427 -1.453281
2009-02-06 08:14:23 51°14.459 2°54.876 -999 0.024405 0.133697 -1.418457
2009-02-06 08:14:28 51°14.468 2°54.857 -999 0.024405 0.133697 -1.418457
2009-02-06 08:14:32 51°14.475 2°54.842 -999 0.025022 0.137099 -1.418457
2009-02-06 08:14:38 51°14.486 2°54.818 -999 0.024302 0.133157 -1.418457
2009-02-06 08:14:43 51°14.494 2°54.798 -999 0.024508 0.134274 -1.453281
2009-02-06 08:14:48 51°14.503 2°54.779 -999 0.024714 0.135407 -1.453281
2009-02-06 08:14:52 51°14.51 2°54.763 -999 0.024919 0.136559 -1.453281
2009-02-06 08:14:58 51°14.52 2°54.738 -999 0.024919 0.136559 -1.453281
2009-02-06 08:15:03 51°14.528 2°54.717 -999 0.024302 0.133177 -1.453281
2009-02-06 08:15:08 51°14.535 2°54.696 -999 0.024302 0.133173 -1.453281
2009-02-06 08:15:12 51°14.541 2°54.679 -999 0.02389 0.130918 -1.418457
2009-02-06 08:15:18 51°14.55 2°54.654 -999 0.02389 0.130899 -1.453281
2009-02-06 08:15:23 51°14.558 2°54.633 -999 0.024405 0.133712 -1.418457
2009-02-06 08:15:28 51°14.566 2°54.612 -999 0.024405 0.133712 -1.418457
2009-02-06 08:15:33 51°14.574 2°54.59 -999 0.024096 0.132036 -1.418457
2009-02-06 08:15:38 51°14.583 2°54.569 -999 0.024096 0.132034 -1.453281
2009-02-06 08:15:43 51°14.591 2°54.547 -999 0.02389 0.130916 -1.453281
2009-02-06 08:15:48 51°14.598 2°54.525 -999 0.023479 0.12866 -1.453281
2009-02-06 08:15:53 51°14.607 2°54.503 -999 0.02389 0.130892 -1.418457
2009-02-06 08:15:58 51°14.615 2°54.481 -999 0.02389 0.130892 -1.418457
2009-02-06 08:16:03 51°14.623 2°54.459 -999 0.024096 0.132021 -1.453281
2009-02-06 08:16:07 51°14.63 2°54.441 -999 0.024096 0.132025 -1.418457
2009-02-06 08:16:13 51°14.64 2°54.415 -999 0.023787 0.13034 -1.418457
2009-02-06 08:16:18 51°14.648 2°54.393 -999 0.023479 0.128649 -1.453281
2009-02-06 08:16:23 51°14.657 2°54.371 -999 0.023787 0.13034 -1.453281
2009-02-06 08:16:28 51°14.665 2°54.349 -999 0.023787 0.13034 -1.453281
2009-02-06 08:16:33 51°14.674 2°54.327 -999 0.023685 0.129781 -1.418457
2009-02-06 08:16:38 51°14.682 2°54.304 -999 0.023685 0.129779 -1.453281
2009-02-06 08:16:43 51°14.691 2°54.282 -999 0.02389 0.130892 -1.453281
2009-02-06 08:16:48 51°14.699 2°54.26 -999 0.023376 0.128093 -1.453281
2009-02-06 08:16:52 51°14.706 2°54.242 -999 0.023582 0.129229 -1.418457
2009-02-06 08:16:58 51°14.715 2°54.215 -999 0.023582 0.129229 -1.418457
2009-02-06 08:17:03 51°14.724 2°54.193 -999 0.023787 0.130353 -1.418457
2009-02-06 08:17:08 51°14.731 2°54.17 -999 0.023787 0.130357 -1.453281
2009-02-06 08:17:12 51°14.738 2°54.152 -999 0.023273 0.127537 -1.418457
2009-02-06 08:17:18 51°14.747 2°54.125 -999 0.023479 0.128662 -1.418457
2009-02-06 08:17:23 51°14.755 2°54.102 -999 0.023479 0.12867 -1.453281
2009-02-06 08:17:28 51°14.763 2°54.08 -999 0.023479 0.12867 -1.453281
2009-02-06 08:17:33 51°14.771 2°54.057 -999 0.023479 0.12867 -1.453281
2009-02-06 08:17:38 51°14.778 2°54.034 -999 0.023582 0.129244 -1.453281
2009-02-06 08:17:43 51°14.786 2°54.011 -999 0.023273 0.127558 -1.453281
2009-02-06 08:17:48 51°14.793 2°53.989 -999 0.02317 0.126989 -1.418457
2009-02-06 08:17:53 51°14.801 2°53.966 -999 0.023582 0.129237 -1.418457
2009-02-06 08:17:58 51°14.808 2°53.943 -999 0.023582 0.129237 -1.418457
2009-02-06 08:18:03 51°14.816 2°53.921 -999 0.02317 0.126991 -1.453281
2009-02-06 08:18:08 51°14.824 2°53.898 -999 0.023273 0.127556 -1.453281
2009-02-06 08:18:13 51°14.831 2°53.875 -999 0.022964 0.125863 -1.453281
2009-02-06 08:18:18 51°14.839 2°53.852 -999 0.023273 0.127532 -1.418457
2009-02-06 08:18:23 51°14.847 2°53.83 -999 0.023479 0.128655 -1.418457
2009-02-06 08:18:28 51°14.856 2°53.807 -999 0.023479 0.128655 -1.418457
2009-02-06 08:18:33 51°14.865 2°53.785 -999 0.023582 0.129231 -1.453281
2009-02-06 08:18:38 51°14.873 2°53.763 -999 0.023376 0.128114 -1.453281
2009-02-06 08:18:43 51°14.882 2°53.741 -999 0.023479 0.128679 -1.453281
2009-02-06 08:18:48 51°14.89 2°53.718 -999 0.023787 0.13037 -1.453281
2009-02-06 08:18:52 51°14.897 2°53.701 -999 0.023273 0.127568 -1.418457
2009-02-06 08:18:58 51°14.907 2°53.674 -999 0.023273 0.127568 -1.418457
2009-02-06 08:19:03 51°14.916 2°53.652 -999 0.023582 0.129261 -1.418457
2009-02-06 08:19:07 51°14.923 2°53.634 -999 0.023479 0.128709 -1.453281
2009-02-06 08:19:12 51°14.932 2°53.612 -999 0.023273 0.127589 -1.418457
2009-02-06 08:19:18 51°14.942 2°53.585 -999 0.02317 0.127027 -1.453281
2009-02-06 08:19:23 51°14.95 2°53.563 -999 0.023067 0.12646 -1.453281
2009-02-06 08:19:28 51°14.959 2°53.54 -999 0.023067 0.12646 -1.453281
2009-02-06 08:19:32 51°14.965 2°53.522 -999 0.023273 0.127583 -1.418457
2009-02-06 08:19:38 51°14.976 2°53.496 -999 0.02317 0.127025 -1.453281
2009-02-06 08:19:43 51°14.984 2°53.473 -999 0.022758 0.124766 -1.453281
2009-02-06 08:19:48 51°14.993 2°53.451 -999 0.023685 0.12982 -1.453281
2009-02-06 08:19:53 51°15.001 2°53.429 -999 0.02317 0.127031 -1.418457
2009-02-06 08:19:58 51°15.009 2°53.406 -999 0.02317 0.127031 -1.418457
2009-02-06 08:20:03 51°15.018 2°53.384 -999 0.023582 0.129278 -1.418457
2009-02-06 08:20:08 51°15.026 2°53.361 -999 0.02317 0.127035 -1.453281
2009-02-06 08:20:13 51°15.034 2°53.339 -999 0.023273 0.127596 -1.453281
2009-02-06 08:20:18 51°15.042 2°53.316 -999 0.023376 0.12815 -1.453281
2009-02-06 08:20:23 51°15.051 2°53.294 -999 0.022964 0.125898 -1.418457
2009-02-06 08:20:28 51°15.059 2°53.271 -999 0.022964 0.125898 -1.418457
2009-02-06 08:20:33 51°15.067 2°53.249 -999 0.023067 0.12646 -1.453281
2009-02-06 08:20:38 51°15.075 2°53.226 -999 0.022861 0.125338 -1.453281
2009-02-06 08:20:43 51°15.084 2°53.204 -999 0.022964 0.125896 -1.418457
2009-02-06 08:20:48 51°15.092 2°53.181 -999 0.023787 0.130405 -1.453281
2009-02-06 08:20:53 51°15.1 2°53.159 -999 0.02317 0.12705 -1.418457
2009-02-06 08:20:58 51°15.108 2°53.136 -999 0.02317 0.12705 -1.418457
2009-02-06 08:21:03 51°15.116 2°53.113 -999 0.023273 0.127606 -1.453281
2009-02-06 08:21:07 51°15.121 2°53.095 -999 0.022758 0.124799 -1.453281
2009-02-06 08:21:12 51°15.129 2°53.072 -999 0.022861 0.125354 -1.418457
2009-02-06 08:21:18 51°15.138 2°53.045 -999 0.022656 0.124222 -1.418457
2009-02-06 08:21:23 51°15.146 2°53.022 -999 0.022758 0.124778 -1.418457
2009-02-06 08:21:28 51°15.154 2°52.999 -999 0.022758 0.124778 -1.418457
2009-02-06 08:21:32 51°15.16 2°52.981 -999 0.022758 0.124776 -1.418457
2009-02-06 08:21:38 51°15.17 2°52.954 -999 0.02317 0.127018 -1.418457
2009-02-06 08:21:43 51°15.178 2°52.931 -999 0.023067 0.126464 -1.418457
2009-02-06 08:21:48 51°15.186 2°52.909 -999 0.022758 0.124782 -1.453281
2009-02-06 08:21:53 51°15.195 2°52.886 -999 0.022861 0.125338 -1.453281
2009-02-06 08:21:58 51°15.203 2°52.863 -999 0.022861 0.125338 -1.453281
2009-02-06 08:22:03 51°15.211 2°52.841 -999 0.022964 0.12591 -1.418457
2009-02-06 08:22:08 51°15.219 2°52.818 -999 0.022964 0.125902 -1.453281
2009-02-06 08:22:13 51°15.227 2°52.795 -999 0.022964 0.125913 -1.418457
2009-02-06 08:22:18 51°15.234 2°52.772 -999 0.022861 0.125352 -1.453281
2009-02-06 08:22:23 51°15.242 2°52.749 -999 0.022553 0.123673 -1.418457
2009-02-06 08:22:28 51°15.249 2°52.726 -999 0.022553 0.123673 -1.418457
2009-02-06 08:22:33 51°15.257 2°52.703 -999 0.022758 0.124788 -1.453281
2009-02-06 08:22:38 51°15.264 2°52.68 -999 0.022861 0.125354 -1.418457
2009-02-06 08:22:43 51°15.272 2°52.656 -999 0.022758 0.124786 -1.453281
2009-02-06 08:22:48 51°15.28 2°52.634 -999 0.022861 0.125346 -1.453281
2009-02-06 08:22:53 51°15.288 2°52.611 -999 0.022656 0.124231 -1.453281
2009-02-06 08:22:58 51°15.296 2°52.588 -999 0.022656 0.124231 -1.453281
2009-02-06 08:23:03 51°15.303 2°52.565 -999 0.022656 0.124228 -1.418457
2009-02-06 08:23:07 51°15.31 2°52.546 -999 0.022758 0.124792 -1.453281
2009-02-06 08:23:13 51°15.319 2°52.519 -999 0.022656 0.124235 -1.418457
2009-02-06 08:23:18 51°15.327 2°52.496 -999 0.022553 0.123671 -1.453281
2009-02-06 08:23:23 51°15.335 2°52.473 -999 0.022347 0.122542 -1.418457
2009-02-06 08:23:27 51°15.341 2°52.454 -999 0.022347 0.122542 -1.418457
2009-02-06 08:23:32 51°15.349 2°52.432 -999 0.022553 0.123663 -1.453281
2009-02-06 08:23:38 51°15.359 2°52.404 -999 0.022758 0.12479 -1.453281
2009-02-06 08:23:43 51°15.368 2°52.382 -999 0.022861 0.125354 -1.418457
2009-02-06 08:23:48 51°15.376 2°52.359 -999 0.022553 0.123669 -1.453281
2009-02-06 08:23:52 51°15.383 2°52.342 -999 0.02245 0.123109 -1.418457
2009-02-06 08:23:58 51°15.394 2°52.315 -999 0.02245 0.123109 -1.418457
2009-02-06 08:24:03 51°15.402 2°52.292 -999 0.02245 0.123109 -1.418457
2009-02-06 08:24:08 51°15.411 2°52.27 -999 0.022553 0.123679 -1.453281
2009-02-06 08:24:13 51°15.42 2°52.247 -999 0.022347 0.122554 -1.453281
2009-02-06 08:24:18 51°15.428 2°52.225 -999 0.022964 0.125919 -1.418457
2009-02-06 08:24:23 51°15.437 2°52.202 -999 0.022758 0.124799 -1.418457
2009-02-06 08:24:28 51°15.446 2°52.18 -999 0.022758 0.124799 -1.418457
2009-02-06 08:24:33 51°15.454 2°52.158 -999 0.022758 0.124794 -1.418457
2009-02-06 08:24:38 51°15.463 2°52.135 -999 0.022758 0.124792 -1.418457
2009-02-06 08:24:43 51°15.471 2°52.113 -999 0.02245 0.123113 -1.418457
2009-02-06 08:24:48 51°15.479 2°52.089 -999 0.022656 0.124239 -1.418457
2009-02-06 08:24:53 51°15.487 2°52.067 -999 0.022553 0.123687 -1.418457
2009-02-06 08:24:58 51°15.494 2°52.044 -999 0.022553 0.123687 -1.418457
2009-02-06 08:25:03 51°15.502 2°52.02 -999 0.02245 0.123125 -1.418457
2009-02-06 08:25:08 51°15.51 2°51.998 -999 0.022553 0.123685 -1.418457
2009-02-06 08:25:13 51°15.517 2°51.974 -999 0.022244 0.121998 -1.418457
2009-02-06 08:25:18 51°15.525 2°51.951 -999 0.021935 0.120304 -1.418457
2009-02-06 08:25:23 51°15.533 2°51.928 -999 0.022141 0.121421 -1.418457
2009-02-06 08:25:27 51°15.539 2°51.91 -999 0.022141 0.121421 -1.418457
2009-02-06 08:25:33 51°15.549 2°51.882 -999 0.022244 0.12199 -1.453281
2009-02-06 08:25:38 51°15.558 2°51.86 -999 0.022347 0.122548 -1.418457
2009-02-06 08:25:43 51°15.566 2°51.837 -999 0.02245 0.123113 -1.418457
2009-02-06 08:25:48 51°15.574 2°51.815 -999 0.02245 0.123107 -1.418457
2009-02-06 08:25:52 51°15.581 2°51.796 -999 0.022553 0.123677 -1.418457
2009-02-06 08:25:58 51°15.591 2°51.769 -999 0.022553 0.123677 -1.418457
2009-02-06 08:26:03 51°15.599 2°51.746 -999 0.022656 0.124247 -1.418457
2009-02-06 08:26:08 51°15.607 2°51.723 -999 0.022656 0.124241 -1.453281
2009-02-06 08:26:13 51°15.615 2°51.701 -999 0.022038 0.120878 -1.453281
2009-02-06 08:26:18 51°15.623 2°51.678 -999 0.022141 0.121431 -1.418457
2009-02-06 08:26:23 51°15.631 2°51.654 -999 0.021935 0.120309 -1.418457
2009-02-06 08:26:28 51°15.638 2°51.631 -999 0.021935 0.120309 -1.418457
2009-02-06 08:26:33 51°15.646 2°51.608 -999 0.021935 0.120317 -1.418457
2009-02-06 08:26:38 51°15.654 2°51.585 -999 0.022244 0.121994 -1.453281
2009-02-06 08:26:43 51°15.661 2°51.562 -999 0.022141 0.121437 -1.418457
2009-02-06 08:26:48 51°15.669 2°51.539 -999 0.022244 0.121998 -1.453281
2009-02-06 08:26:52 51°15.675 2°51.52 -999 0.021935 0.120313 -1.418457
2009-02-06 08:26:58 51°15.684 2°51.492 -999 0.021935 0.120313 -1.418457
2009-02-06 08:27:03 51°15.692 2°51.469 -999 0.022141 0.121429 -1.418457
2009-02-06 08:27:08 51°15.7 2°51.446 -999 0.022347 0.122552 -1.418457
2009-02-06 08:27:13 51°15.708 2°51.423 -999 0.022244 0.121998 -1.453281
2009-02-06 08:27:18 51°15.716 2°51.4 -999 0.021935 0.120323 -1.453281
2009-02-06 08:27:23 51°15.724 2°51.377 -999 0.022038 0.120882 -1.418457
2009-02-06 08:27:28 51°15.731 2°51.354 -999 0.022038 0.120882 -1.418457
2009-02-06 08:27:33 51°15.739 2°51.331 -999 0.02245 0.123119 -1.453281
2009-02-06 08:27:38 51°15.746 2°51.307 -999 0.022038 0.120888 -1.418457
2009-02-06 08:27:43 51°15.754 2°51.284 -999 0.021729 0.119198 -1.418457
2009-02-06 08:27:47 51°15.76 2°51.265 -999 0.021935 0.120319 -1.418457
2009-02-06 08:27:53 51°15.769 2°51.237 -999 0.02245 0.123123 -1.453281
2009-02-06 08:27:58 51°15.777 2°51.214 -999 0.02245 0.123123 -1.453281
2009-02-06 08:28:03 51°15.784 2°51.191 -999 0.022553 0.123697 -1.418457
2009-02-06 08:28:08 51°15.791 2°51.167 -999 0.022038 0.120898 -1.418457
2009-02-06 08:28:12 51°15.797 2°51.148 -999 0.021832 0.11977 -1.418457
2009-02-06 08:28:18 51°15.805 2°51.12 -999 0.022038 0.120892 -1.453281
2009-02-06 08:28:23 51°15.812 2°51.096 -999 0.022038 0.120888 -1.418457
2009-02-06 08:28:28 51°15.819 2°51.072 -999 0.022038 0.120888 -1.418457
2009-02-06 08:28:33 51°15.825 2°51.048 -999 0.021935 0.120327 -1.453281
2009-02-06 08:28:38 51°15.832 2°51.024 -999 0.022244 0.122009 -1.418457
2009-02-06 08:28:43 51°15.839 2°51.001 -999 0.021832 0.11977 -1.418457
2009-02-06 08:28:48 51°15.846 2°50.977 -999 0.021832 0.11977 -1.418457
2009-02-06 08:28:52 51°15.851 2°50.958 -999 0.022038 0.120892 -1.453281
2009-02-06 08:28:58 51°15.859 2°50.929 -999 0.022038 0.120892 -1.453281
2009-02-06 08:29:03 51°15.865 2°50.905 -999 0.022244 0.122013 -1.418457
2009-02-06 08:29:08 51°15.872 2°50.881 -999 0.022141 0.121453 -1.453281
2009-02-06 08:29:13 51°15.879 2°50.857 -999 0.022038 0.120892 -1.418457
2009-02-06 08:29:18 51°15.885 2°50.833 -999 0.022038 0.12089 -1.418457
2009-02-06 08:29:23 51°15.892 2°50.809 -999 0.021935 0.120333 -1.453281
2009-02-06 08:29:28 51°15.898 2°50.785 -999 0.021935 0.120333 -1.453281
2009-02-06 08:29:33 51°15.905 2°50.762 -999 0.021832 0.119772 -1.453281
2009-02-06 08:29:38 51°15.911 2°50.738 -999 0.022038 0.120888 -1.418457
2009-02-06 08:29:43 51°15.918 2°50.714 -999 0.022553 0.123695 -1.418457
2009-02-06 08:29:47 51°15.923 2°50.695 -999 0.021832 0.119778 -1.418457
2009-02-06 08:29:53 51°15.93 2°50.666 -999 0.022038 0.120896 -1.418457
2009-02-06 08:29:58 51°15.936 2°50.642 -999 0.022038 0.120896 -1.418457
2009-02-06 08:30:03 51°15.942 2°50.618 -999 0.021524 0.118099 -1.453281
2009-02-06 08:30:08 51°15.947 2°50.594 -999 0.021935 0.120341 -1.453281
2009-02-06 08:30:13 51°15.953 2°50.57 -999 0.021626 0.118661 -1.418457
2009-02-06 08:30:18 51°15.958 2°50.546 -999 0.021626 0.118655 -1.453281
2009-02-06 08:30:23 51°15.965 2°50.523 -999 0.021626 0.118655 -1.418457
2009-02-06 08:30:28 51°15.971 2°50.499 -999 0.021626 0.118655 -1.418457
2009-02-06 08:30:33 51°15.977 2°50.475 -999 0.021729 0.119216 -1.418457
2009-02-06 08:30:38 51°15.983 2°50.452 -999 0.022038 0.1209 -1.418457
2009-02-06 08:30:43 51°15.989 2°50.428 -999 0.022038 0.120906 -1.418457
2009-02-06 08:30:48 51°15.995 2°50.405 -999 0.021729 0.119229 -1.453281
2009-02-06 08:30:52 51°15.999 2°50.386 -999 0.021524 0.11811 -1.453281
2009-02-06 08:30:58 51°16.006 2°50.357 -999 0.021524 0.11811 -1.453281
2009-02-06 08:31:03 51°16.011 2°50.333 -999 0.021935 0.120347 -1.453281
2009-02-06 08:31:08 51°16.017 2°50.309 -999 0.021626 0.118673 -1.418457
2009-02-06 08:31:12 51°16.021 2°50.29 -999 0.021832 0.119792 -1.418457
2009-02-06 08:31:18 51°16.027 2°50.262 -999 0.022553 0.12372 -1.453281
2009-02-06 08:31:23 51°16.03 2°50.237 -999 0.022347 0.122614 -1.453281
2009-02-06 08:31:28 51°16.034 2°50.213 -999 0.022347 0.122614 -1.453281
2009-02-06 08:31:33 51°16.038 2°50.188 -999 0.021832 0.119794 -1.418457
2009-02-06 08:31:38 51°16.041 2°50.163 -999 0.021935 0.120347 -1.418457
2009-02-06 08:31:43 51°16.045 2°50.139 -999 0.021935 0.120343 -1.418457
2009-02-06 08:31:48 51°16.048 2°50.114 -999 0.021935 0.120339 -1.453281
2009-02-06 08:31:53 51°16.051 2°50.089 -999 0.021832 0.119784 -1.418457
2009-02-06 08:31:58 51°16.054 2°50.064 -999 0.021832 0.119784 -1.418457
2009-02-06 08:32:03 51°16.058 2°50.04 -999 0.021729 0.119216 -1.453281
2009-02-06 08:32:07 51°16.06 2°50.019 -999 0.022347 0.122594 -1.418457
2009-02-06 08:32:13 51°16.061 2°49.989 -999 0.021935 0.120357 -1.453281
2009-02-06 08:32:18 51°16.063 2°49.964 -999 0.021832 0.119794 -1.418457
2009-02-06 08:32:23 51°16.063 2°49.939 -999 0.021524 0.118106 -1.418457
2009-02-06 08:32:28 51°16.064 2°49.914 -999 0.021524 0.118106 -1.418457
2009-02-06 08:32:33 51°16.064 2°49.889 -999 0.021832 0.119786 -1.453281
2009-02-06 08:32:38 51°16.064 2°49.863 -999 0.021215 0.116432 -1.453281
2009-02-06 08:32:43 51°16.065 2°49.838 -999 0.021421 0.11754 -1.453281
2009-02-06 08:32:48 51°16.066 2°49.812 -999 0.021215 0.116424 -1.418457
2009-02-06 08:32:52 51°16.067 2°49.792 -999 0.021421 0.11754 -1.453281
2009-02-06 08:32:58 51°16.068 2°49.762 -999 0.021421 0.11754 -1.453281
2009-02-06 08:33:03 51°16.069 2°49.736 -999 0.021421 0.117546 -1.453281
2009-02-06 08:33:08 51°16.07 2°49.711 -999 0.021318 0.116988 -1.418457
2009-02-06 08:33:12 51°16.071 2°49.69 -999 0.021729 0.119227 -1.453281
2009-02-06 08:33:18 51°16.072 2°49.66 -999 0.021729 0.119231 -1.453281
2009-02-06 08:33:23 51°16.072 2°49.634 -999 0.021524 0.118118 -1.418457
2009-02-06 08:33:28 51°16.073 2°49.609 -999 0.021524 0.118118 -1.418457
2009-02-06 08:33:33 51°16.074 2°49.584 -999 0.021524 0.118116 -1.418457
2009-02-06 08:33:38 51°16.075 2°49.558 -999 0.021009 0.115324 -1.418457
2009-02-06 08:33:43 51°16.077 2°49.533 -999 0.021215 0.116437 -1.418457
2009-02-06 08:33:48 51°16.078 2°49.508 -999 0.021112 0.11588 -1.418457
2009-02-06 08:33:53 51°16.08 2°49.482 -999 0.021626 0.118673 -1.418457
2009-02-06 08:33:58 51°16.082 2°49.457 -999 0.021626 0.118673 -1.418457
2009-02-06 08:34:03 51°16.084 2°49.432 -999 0.021421 0.11756 -1.418457
2009-02-06 08:34:08 51°16.086 2°49.406 -999 0.021009 0.115324 -1.453281
2009-02-06 08:34:13 51°16.088 2°49.381 -999 0.021421 0.117558 -1.418457
2009-02-06 08:34:18 51°16.09 2°49.356 -999 0.021421 0.117561 -1.418457
2009-02-06 08:34:23 51°16.092 2°49.33 -999 0.021421 0.117563 -1.453281
2009-02-06 08:34:28 51°16.094 2°49.305 -999 0.021421 0.117563 -1.453281
2009-02-06 08:34:33 51°16.096 2°49.279 -999 0.021524 0.118126 -1.418457
2009-02-06 08:34:38 51°16.098 2°49.254 -999 0.021215 0.116449 -1.453281
2009-02-06 08:34:43 51°16.1 2°49.229 -999 0.021112 0.115885 -1.453281
2009-02-06 08:34:48 51°16.103 2°49.203 -999 0.021421 0.117561 -1.418457
2009-02-06 08:34:52 51°16.105 2°49.183 -999 0.021421 0.117563 -1.453281
2009-02-06 08:34:58 51°16.108 2°49.152 -999 0.021421 0.117563 -1.453281
2009-02-06 08:35:03 51°16.111 2°49.127 -999 0.021421 0.117563 -1.453281
2009-02-06 08:35:08 51°16.114 2°49.102 -999 0.021626 0.118684 -1.418457
2009-02-06 08:35:12 51°16.117 2°49.081 -999 0.021832 0.119806 -1.418457
2009-02-06 08:35:18 51°16.12 2°49.051 -999 0.021524 0.118131 -1.453281
2009-02-06 08:35:23 51°16.123 2°49.025 -999 0.021832 0.11981 -1.453281
2009-02-06 08:35:28 51°16.126 2°49 -999 0.021832 0.11981 -1.453281
2009-02-06 08:35:33 51°16.128 2°48.974 -999 0.021421 0.117577 -1.418457
2009-02-06 08:35:38 51°16.131 2°48.949 -999 0.021215 0.116456 -1.453281
2009-02-06 08:35:43 51°16.133 2°48.923 -999 0.021421 0.117575 -1.453281
2009-02-06 08:35:48 51°16.135 2°48.898 -999 0.021421 0.117575 -1.418457
2009-02-06 08:35:53 51°16.138 2°48.873 -999 0.021626 0.118694 -1.418457
2009-02-06 08:35:58 51°16.14 2°48.847 -999 0.021626 0.118694 -1.418457
2009-02-06 08:36:03 51°16.142 2°48.821 -999 0.021626 0.118694 -1.418457
2009-02-06 08:36:08 51°16.144 2°48.796 -999 0.021215 0.116458 -1.418457
2009-02-06 08:36:13 51°16.146 2°48.77 -999 0.021215 0.116456 -1.418457
2009-02-06 08:36:18 51°16.148 2°48.745 -999 0.021421 0.117575 -1.453281
2009-02-06 08:36:23 51°16.15 2°48.719 -999 0.021215 0.116458 -1.453281
2009-02-06 08:36:28 51°16.152 2°48.693 -999 0.021215 0.116458 -1.453281
2009-02-06 08:36:33 51°16.154 2°48.668 -999 0.021318 0.117018 -1.418457
2009-02-06 08:36:38 51°16.156 2°48.642 -999 0.021318 0.117017 -1.418457
2009-02-06 08:36:43 51°16.158 2°48.617 -999 0.021318 0.117018 -1.418457
2009-02-06 08:36:48 51°16.16 2°48.591 -999 0.021009 0.115342 -1.418457
2009-02-06 08:36:53 51°16.163 2°48.566 -999 0.021215 0.11646 -1.453281
2009-02-06 08:36:58 51°16.165 2°48.541 -999 0.021215 0.11646 -1.453281
2009-02-06 08:37:03 51°16.167 2°48.515 -999 0.021112 0.115904 -1.418457
2009-02-06 08:37:07 51°16.168 2°48.495 -999 0.021421 0.117586 -1.453281
2009-02-06 08:37:13 51°16.171 2°48.464 -999 0.021215 0.116466 -1.418457
2009-02-06 08:37:18 51°16.172 2°48.439 -999 0.021318 0.117024 -1.418457
2009-02-06 08:37:23 51°16.174 2°48.414 -999 0.021421 0.117585 -1.418457
2009-02-06 08:37:28 51°16.176 2°48.388 -999 0.021421 0.117585 -1.418457
2009-02-06 08:37:32 51°16.176 2°48.368 -999 0.021318 0.117026 -1.453281
2009-02-06 08:37:38 51°16.179 2°48.337 -999 0.021318 0.117024 -1.453281
2009-02-06 08:37:43 51°16.18 2°48.312 -999 0.021421 0.117583 -1.453281
2009-02-06 08:37:48 51°16.182 2°48.286 -999 0.021318 0.117022 -1.453281
2009-02-06 08:37:53 51°16.184 2°48.261 -999 0.021318 0.117026 -1.453281
2009-02-06 08:37:58 51°16.186 2°48.235 -999 0.021318 0.117026 -1.453281
2009-02-06 08:38:03 51°16.187 2°48.21 -999 0.021524 0.118147 -1.453281
2009-02-06 08:38:08 51°16.189 2°48.184 -999 0.021215 0.116468 -1.453281
2009-02-06 08:38:13 51°16.19 2°48.159 -999 0.021215 0.116468 -1.418457
2009-02-06 08:38:18 51°16.192 2°48.133 -999 0.021112 0.115912 -1.418457
2009-02-06 08:38:23 51°16.193 2°48.108 -999 0.021318 0.11703 -1.418457
2009-02-06 08:38:28 51°16.195 2°48.083 -999 0.021318 0.11703 -1.418457
2009-02-06 08:38:33 51°16.196 2°48.057 -999 0.021421 0.11759 -1.418457
2009-02-06 08:38:38 51°16.198 2°48.032 -999 0.021318 0.117032 -1.418457
2009-02-06 08:38:43 51°16.199 2°48.006 -999 0.021421 0.117592 -1.383633
2009-02-06 08:38:48 51°16.201 2°47.981 -999 0.021318 0.117032 -1.418457
2009-02-06 08:38:53 51°16.202 2°47.956 -999 0.021112 0.115917 -1.453281
2009-02-06 08:38:58 51°16.204 2°47.93 -999 0.021112 0.115917 -1.453281
2009-02-06 08:39:03 51°16.205 2°47.905 -999 0.021112 0.115917 -1.418457
2009-02-06 08:39:07 51°16.206 2°47.885 -999 0.021318 0.117034 -1.418457
2009-02-06 08:39:13 51°16.208 2°47.854 -999 0.021421 0.117594 -1.418457
2009-02-06 08:39:18 51°16.21 2°47.829 -999 0.021421 0.117596 -1.418457
2009-02-06 08:39:23 51°16.211 2°47.803 -999 0.021112 0.115921 -1.418457
2009-02-06 08:39:27 51°16.212 2°47.783 -999 0.021112 0.115921 -1.418457
2009-02-06 08:39:33 51°16.214 2°47.753 -999 0.021112 0.115921 -1.418457
2009-02-06 08:39:38 51°16.216 2°47.727 -999 0.021215 0.116479 -1.418457
2009-02-06 08:39:43 51°16.218 2°47.702 -999 0.021524 0.118157 -1.418457
2009-02-06 08:39:48 51°16.219 2°47.677 -999 0.021524 0.118157 -1.453281
2009-02-06 08:39:52 51°16.22 2°47.656 -999 0.021421 0.1176 -1.418457
2009-02-06 08:39:58 51°16.222 2°47.626 -999 0.021421 0.1176 -1.418457
2009-02-06 08:40:03 51°16.224 2°47.601 -999 0.021421 0.1176 -1.418457
2009-02-06 08:40:08 51°16.225 2°47.576 -999 0.021215 0.116481 -1.418457
2009-02-06 08:40:13 51°16.227 2°47.55 -999 0.021318 0.117041 -1.418457
2009-02-06 08:40:18 51°16.228 2°47.526 -999 0.021318 0.117043 -1.418457
2009-02-06 08:40:23 51°16.23 2°47.501 -999 0.021421 0.117602 -1.418457
2009-02-06 08:40:28 51°16.232 2°47.476 -999 0.021421 0.117602 -1.418457
2009-02-06 08:40:33 51°16.233 2°47.451 -999 0.021215 0.116487 -1.418457
2009-02-06 08:40:38 51°16.235 2°47.426 -999 0.021626 0.118723 -1.453281
2009-02-06 08:40:43 51°16.236 2°47.401 -999 0.021421 0.117606 -1.418457
2009-02-06 08:40:48 51°16.238 2°47.376 -999 0.021318 0.117047 -1.453281
2009-02-06 08:40:53 51°16.239 2°47.352 -999 0.021421 0.117608 -1.453281
2009-02-06 08:40:58 51°16.241 2°47.327 -999 0.021421 0.117608 -1.453281
2009-02-06 08:41:03 51°16.242 2°47.302 -999 0.021215 0.116489 -1.418457
2009-02-06 08:41:08 51°16.243 2°47.277 -999 0.021215 0.116489 -1.418457
2009-02-06 08:41:13 51°16.245 2°47.252 -999 0.021318 0.117047 -1.453281
2009-02-06 08:41:18 51°16.247 2°47.227 -999 0.021626 0.118727 -1.418457
2009-02-06 08:41:23 51°16.248 2°47.202 -999 0.021524 0.11817 -1.418457
2009-02-06 08:41:27 51°16.249 2°47.182 -999 0.021524 0.11817 -1.418457
2009-02-06 08:41:33 51°16.25 2°47.152 -999 0.021524 0.118172 -1.418457
2009-02-06 08:41:38 51°16.251 2°47.127 -999 0.021318 0.117051 -1.418457
2009-02-06 08:41:43 51°16.253 2°47.102 -999 0.021626 0.118729 -1.418457
2009-02-06 08:41:48 51°16.254 2°47.077 -999 0.021832 0.119851 -1.453281
2009-02-06 08:41:52 51°16.255 2°47.057 -999 0.021318 0.117055 -1.418457
2009-02-06 08:41:58 51°16.256 2°47.027 -999 0.021318 0.117055 -1.418457
2009-02-06 08:42:03 51°16.257 2°47.002 -999 0.021524 0.118166 -1.418457
2009-02-06 08:42:08 51°16.257 2°46.977 -999 0.021626 0.118727 -1.418457
2009-02-06 08:42:13 51°16.258 2°46.952 -999 0.021215 0.116491 -1.418457
2009-02-06 08:42:18 51°16.259 2°46.927 -999 0.021626 0.118725 -1.418457
2009-02-06 08:42:23 51°16.259 2°46.902 -999 0.021421 0.117608 -1.418457
2009-02-06 08:42:28 51°16.259 2°46.877 -999 0.021421 0.117608 -1.418457
2009-02-06 08:42:33 51°16.26 2°46.852 -999 0.021421 0.117606 -1.418457
2009-02-06 08:42:38 51°16.26 2°46.827 -999 0.021112 0.115932 -1.418457
2009-02-06 08:42:43 51°16.26 2°46.802 -999 0.021318 0.117049 -1.453281
2009-02-06 08:42:48 51°16.261 2°46.777 -999 0.021112 0.115931 -1.418457
2009-02-06 08:42:53 51°16.262 2°46.752 -999 0.021421 0.117608 -1.418457
2009-02-06 08:42:58 51°16.263 2°46.727 -999 0.021421 0.117608 -1.418457
2009-02-06 08:43:03 51°16.263 2°46.701 -999 0.021626 0.118727 -1.418457
2009-02-06 08:43:08 51°16.264 2°46.676 -999 0.021421 0.117611 -1.453281
2009-02-06 08:43:13 51°16.265 2°46.651 -999 0.021009 0.115373 -1.453281
2009-02-06 08:43:18 51°16.266 2°46.626 -999 0.021626 0.118725 -1.453281
2009-02-06 08:43:23 51°16.267 2°46.601 -999 0.021215 0.116491 -1.418457
2009-02-06 08:43:27 51°16.268 2°46.581 -999 0.021215 0.116491 -1.418457
2009-02-06 08:43:32 51°16.27 2°46.556 -999 0.021626 0.118725 -1.418457
2009-02-06 08:43:37 51°16.271 2°46.531 -999 0.021626 0.118731 -1.418457
2009-02-06 08:43:43 51°16.272 2°46.502 -999 0.021524 0.118174 -1.418457
2009-02-06 08:43:47 51°16.272 2°46.482 -999 0.021729 0.119292 -1.418457
2009-02-06 08:43:52 51°16.273 2°46.457 -999 0.021524 0.118174 -1.418457
2009-02-06 08:43:57 51°16.274 2°46.431 -999 0.021524 0.118174 -1.418457
2009-02-06 08:44:03 51°16.275 2°46.401 -999 0.021421 0.117611 -1.418457
2009-02-06 08:44:07 51°16.276 2°46.382 -999 0.021524 0.11817 -1.453281
2009-02-06 08:44:12 51°16.277 2°46.357 -999 0.021215 0.116496 -1.418457
2009-02-06 08:44:18 51°16.278 2°46.326 -999 0.020906 0.114818 -1.453281
2009-02-06 08:44:23 51°16.278 2°46.301 -999 0.021009 0.115376 -1.418457
2009-02-06 08:44:27 51°16.279 2°46.281 -999 0.021009 0.115376 -1.418457
2009-02-06 08:44:32 51°16.281 2°46.256 -999 0.021421 0.117611 -1.418457
2009-02-06 08:44:38 51°16.283 2°46.226 -999 0.021318 0.117053 -1.418457
2009-02-06 08:44:43 51°16.286 2°46.201 -999 0.021009 0.115378 -1.418457
2009-02-06 08:44:47 51°16.287 2°46.181 -999 0.021112 0.115936 -1.418457
2009-02-06 08:44:52 51°16.289 2°46.156 -999 0.021524 0.118174 -1.418457
2009-02-06 08:44:57 51°16.291 2°46.13 -999 0.021524 0.118174 -1.418457
2009-02-06 08:45:03 51°16.293 2°46.1 -999 0.021318 0.117057 -1.418457
2009-02-06 08:45:07 51°16.295 2°46.08 -999 0.020906 0.11482 -1.418457
2009-02-06 08:45:12 51°16.297 2°46.055 -999 0.021729 0.11929 -1.418457
2009-02-06 08:45:17 51°16.299 2°46.03 -999 0.021112 0.115936 -1.418457
2009-02-06 08:45:22 51°16.301 2°46.005 -999 0.020906 0.114813 -1.418457
2009-02-06 08:45:27 51°16.304 2°45.98 -999 0.020906 0.114813 -1.418457
2009-02-06 08:45:32 51°16.307 2°45.955 -999 0.021421 0.117602 -1.418457
2009-02-06 08:45:37 51°16.31 2°45.93 -999 0.020906 0.114816 -1.418457
2009-02-06 08:45:42 51°16.313 2°45.905 -999 0.020906 0.114816 -1.453281
2009-02-06 08:45:47 51°16.316 2°45.88 -999 0.0207 0.113705 -1.418457
2009-02-06 08:45:52 51°16.318 2°45.855 -999 0.0207 0.113708 -1.418457
2009-02-06 08:45:57 51°16.321 2°45.83 -999 0.0207 0.113708 -1.418457
2009-02-06 08:46:03 51°16.325 2°45.8 -999 0.0207 0.113707 -1.453281
2009-02-06 08:46:07 51°16.327 2°45.78 -999 0.020803 0.114266 -1.418457
2009-02-06 08:46:12 51°16.33 2°45.755 -999 0.020906 0.114824 -1.418457
2009-02-06 08:46:17 51°16.333 2°45.731 -999 0.020906 0.114822 -1.418457
2009-02-06 08:46:23 51°16.337 2°45.701 -999 0.020906 0.114824 -1.418457
2009-02-06 08:46:27 51°16.338 2°45.681 -999 0.020906 0.114824 -1.418457
2009-02-06 08:46:32 51°16.341 2°45.656 -999 0.020906 0.114824 -1.418457
2009-02-06 08:46:38 51°16.344 2°45.626 -999 0.021009 0.115382 -1.453281
2009-02-06 08:46:43 51°16.347 2°45.601 -999 0.021215 0.1165 -1.418457
2009-02-06 08:46:47 51°16.35 2°45.581 -999 0.021009 0.115382 -1.453281
2009-02-06 08:46:52 51°16.353 2°45.556 -999 0.021009 0.115382 -1.418457
2009-02-06 08:46:58 51°16.357 2°45.527 -999 0.021009 0.115382 -1.418457
2009-02-06 08:47:03 51°16.36 2°45.502 -999 0.020906 0.114822 -1.418457
2009-02-06 08:47:07 51°16.362 2°45.482 -999 0.0207 0.113707 -1.418457
2009-02-06 08:47:12 51°16.365 2°45.457 -999 0.0207 0.113705 -1.418457
2009-02-06 08:47:17 51°16.369 2°45.432 -999 0.0207 0.113707 -1.418457
2009-02-06 08:47:23 51°16.372 2°45.402 -999 0.020906 0.11482 -1.453281
2009-02-06 08:47:27 51°16.375 2°45.382 -999 0.020906 0.11482 -1.453281
2009-02-06 08:47:32 51°16.378 2°45.357 -999 0.020803 0.114264 -1.418457
2009-02-06 08:47:37 51°16.381 2°45.332 -999 0.020906 0.114818 -1.418457
2009-02-06 08:47:42 51°16.385 2°45.307 -999 0.020803 0.114259 -1.418457
2009-02-06 08:47:47 51°16.389 2°45.282 -999 0.021112 0.115934 -1.418457
2009-02-06 08:47:52 51°16.392 2°45.258 -999 0.021112 0.115934 -1.418457
2009-02-06 08:47:57 51°16.395 2°45.233 -999 0.021112 0.115934 -1.418457
2009-02-06 08:48:02 51°16.399 2°45.208 -999 0.021009 0.115373 -1.418457
2009-02-06 08:48:07 51°16.402 2°45.183 -999 0.020906 0.114813 -1.418457
2009-02-06 08:48:12 51°16.405 2°45.158 -999 0.020803 0.114253 -1.453281
2009-02-06 08:48:17 51°16.408 2°45.132 -999 0.021009 0.115369 -1.418457
2009-02-06 08:48:23 51°16.413 2°45.103 -999 0.021215 0.116489 -1.418457
2009-02-06 08:48:27 51°16.415 2°45.083 -999 0.021215 0.116489 -1.418457
2009-02-06 08:48:32 51°16.419 2°45.058 -999 0.020803 0.114259 -1.453281
2009-02-06 08:48:37 51°16.422 2°45.033 -999 0.021009 0.115371 -1.418457
2009-02-06 08:48:43 51°16.426 2°45.003 -999 0.021009 0.115371 -1.418457
2009-02-06 08:48:47 51°16.428 2°44.983 -999 0.021215 0.116483 -1.418457
2009-02-06 08:48:52 51°16.431 2°44.958 -999 0.021009 0.115367 -1.418457
2009-02-06 08:48:58 51°16.435 2°44.928 -999 0.021009 0.115367 -1.418457
2009-02-06 08:49:03 51°16.438 2°44.904 -999 0.021009 0.115367 -1.418457
2009-02-06 08:49:07 51°16.44 2°44.884 -999 0.021215 0.116485 -1.418457
2009-02-06 08:49:12 51°16.443 2°44.859 -999 0.021112 0.115927 -1.418457
2009-02-06 08:49:18 51°16.447 2°44.83 -999 0.021215 0.116489 -1.418457
2009-02-06 08:49:23 51°16.45 2°44.805 -999 0.020906 0.114811 -1.418457
2009-02-06 08:49:27 51°16.452 2°44.785 -999 0.020906 0.114811 -1.418457
2009-02-06 08:49:32 51°16.455 2°44.76 -999 0.021318 0.117041 -1.418457
2009-02-06 08:49:37 51°16.458 2°44.736 -999 0.021009 0.115365 -1.418457
2009-02-06 08:49:43 51°16.462 2°44.706 -999 0.020803 0.114246 -1.418457
2009-02-06 08:49:47 51°16.464 2°44.686 -999 0.020495 0.112568 -1.453281
2009-02-06 08:49:52 51°16.468 2°44.661 -999 0.020392 0.112013 -1.418457
2009-02-06 08:49:57 51°16.472 2°44.636 -999 0.020392 0.112013 -1.418457
2009-02-06 08:50:03 51°16.476 2°44.607 -999 0.020906 0.1148 -1.418457
2009-02-06 08:50:07 51°16.479 2°44.587 -999 0.020906 0.1148 -1.418457
2009-02-06 08:50:12 51°16.483 2°44.562 -999 0.020906 0.114801 -1.418457
2009-02-06 08:50:17 51°16.487 2°44.537 -999 0.020906 0.1148 -1.418457
2009-02-06 08:50:22 51°16.491 2°44.512 -999 0.0207 0.113684 -1.418457
2009-02-06 08:50:27 51°16.495 2°44.487 -999 0.0207 0.113684 -1.418457
2009-02-06 08:50:32 51°16.499 2°44.463 -999 0.020803 0.114236 -1.418457
2009-02-06 08:50:37 51°16.503 2°44.438 -999 0.0207 0.113681 -1.418457
2009-02-06 08:50:42 51°16.507 2°44.413 -999 0.0207 0.113677 -1.418457
2009-02-06 08:50:47 51°16.512 2°44.388 -999 0.020906 0.114796 -1.418457
2009-02-06 08:50:52 51°16.516 2°44.364 -999 0.021112 0.115912 -1.418457
2009-02-06 08:50:57 51°16.521 2°44.339 -999 0.021112 0.115912 -1.418457
2009-02-06 08:51:02 51°16.525 2°44.315 -999 0.0207 0.113679 -1.418457
2009-02-06 08:51:07 51°16.531 2°44.29 -999 0.021009 0.115346 -1.418457
2009-02-06 08:51:12 51°16.536 2°44.266 -999 0.020803 0.114227 -1.418457
2009-02-06 08:51:17 51°16.542 2°44.242 -999 0.0207 0.113673 -1.418457
2009-02-06 08:51:23 51°16.548 2°44.213 -999 0.020597 0.113116 -1.418457
2009-02-06 08:51:27 51°16.553 2°44.193 -999 0.020597 0.113116 -1.418457
2009-02-06 08:51:32 51°16.559 2°44.169 -999 0.0207 0.113673 -1.418457
2009-02-06 08:51:37 51°16.566 2°44.145 -999 0.020906 0.114787 -1.418457
2009-02-06 08:51:43 51°16.573 2°44.117 -999 0.0207 0.113671 -1.453281
2009-02-06 08:51:47 51°16.579 2°44.098 -999 0.020803 0.114227 -1.418457
2009-02-06 08:51:52 51°16.586 2°44.074 -999 0.0207 0.11367 -1.418457
2009-02-06 08:51:57 51°16.593 2°44.051 -999 0.0207 0.11367 -1.418457
2009-02-06 08:52:02 51°16.6 2°44.028 -999 0.021215 0.116462 -1.418457
2009-02-06 08:52:07 51°16.607 2°44.004 -999 0.021009 0.115354 -1.418457
2009-02-06 08:52:12 51°16.614 2°43.98 -999 0.0207 0.113673 -1.453281
2009-02-06 08:52:17 51°16.621 2°43.956 -999 0.021318 0.117018 -1.418457
2009-02-06 08:52:22 51°16.629 2°43.933 -999 0.020906 0.114783 -1.418457
2009-02-06 08:52:27 51°16.636 2°43.909 -999 0.020906 0.114783 -1.418457
2009-02-06 08:52:32 51°16.644 2°43.886 -999 0.020906 0.114777 -1.418457
2009-02-06 08:52:37 51°16.651 2°43.862 -999 0.021215 0.116451 -1.418457
2009-02-06 08:52:42 51°16.659 2°43.839 -999 0.021112 0.115891 -1.418457
2009-02-06 08:52:47 51°16.666 2°43.815 -999 0.021112 0.115893 -1.418457
2009-02-06 08:52:52 51°16.674 2°43.792 -999 0.021215 0.116453 -1.418457
2009-02-06 08:52:57 51°16.681 2°43.768 -999 0.021215 0.116453 -1.418457
2009-02-06 08:53:02 51°16.689 2°43.744 -999 0.021112 0.115895 -1.418457
2009-02-06 08:53:07 51°16.695 2°43.721 -999 0.020906 0.114775 -1.418457
2009-02-06 08:53:12 51°16.702 2°43.697 -999 0.020906 0.11477 -1.418457
2009-02-06 08:53:17 51°16.709 2°43.673 -999 0.021009 0.115325 -1.453281
2009-02-06 08:53:23 51°16.717 2°43.645 -999 0.020803 0.114207 -1.418457
2009-02-06 08:53:27 51°16.722 2°43.626 -999 0.020803 0.114207 -1.418457
2009-02-06 08:53:32 51°16.728 2°43.602 -999 0.020803 0.114201 -1.418457
2009-02-06 08:53:37 51°16.734 2°43.578 -999 0.021009 0.115318 -1.418457
2009-02-06 08:53:43 51°16.742 2°43.549 -999 0.020906 0.11476 -1.418457
2009-02-06 08:53:47 51°16.747 2°43.53 -999 0.021112 0.115872 -1.418457
2009-02-06 08:53:52 51°16.754 2°43.507 -999 0.021112 0.115874 -1.418457
2009-02-06 08:53:57 51°16.76 2°43.483 -999 0.021112 0.115874 -1.418457
2009-02-06 08:54:03 51°16.768 2°43.455 -999 0.021112 0.11587 -1.418457
2009-02-06 08:54:07 51°16.773 2°43.436 -999 0.020906 0.114753 -1.418457
2009-02-06 08:54:12 51°16.779 2°43.412 -999 0.021215 0.116424 -1.418457
2009-02-06 08:54:17 51°16.785 2°43.388 -999 0.021215 0.116426 -1.418457
2009-02-06 08:54:22 51°16.792 2°43.365 -999 0.021009 0.11531 -1.418457
2009-02-06 08:54:27 51°16.798 2°43.341 -999 0.021009 0.11531 -1.418457
2009-02-06 08:54:32 51°16.804 2°43.317 -999 0.021112 0.115864 -1.418457
2009-02-06 08:54:37 51°16.81 2°43.294 -999 0.021112 0.115863 -1.418457
2009-02-06 08:54:42 51°16.817 2°43.27 -999 0.020906 0.114745 -1.418457
2009-02-06 08:54:47 51°16.823 2°43.246 -999 0.020803 0.114188 -1.418457
2009-02-06 08:54:52 51°16.829 2°43.223 -999 0.021318 0.116978 -1.418457
2009-02-06 08:54:57 51°16.835 2°43.199 -999 0.021318 0.116978 -1.418457
2009-02-06 08:55:02 51°16.842 2°43.176 -999 0.021318 0.116976 -1.418457
2009-02-06 08:55:07 51°16.848 2°43.152 -999 0.020803 0.114179 -1.418457
2009-02-06 08:55:12 51°16.854 2°43.129 -999 0.020803 0.114173 -1.453281
2009-02-06 08:55:17 51°16.861 2°43.105 -999 0.021318 0.116963 -1.418457
2009-02-06 08:55:22 51°16.867 2°43.082 -999 0.021215 0.116407 -1.418457
2009-02-06 08:55:27 51°16.873 2°43.058 -999 0.021215 0.116407 -1.418457
2009-02-06 08:55:32 51°16.88 2°43.035 -999 0.020906 0.114732 -1.453281
2009-02-06 08:55:37 51°16.886 2°43.011 -999 0.0207 0.113607 -1.418457
2009-02-06 08:55:43 51°16.894 2°42.984 -999 0.021009 0.115282 -1.418457
2009-02-06 08:55:47 51°16.9 2°42.965 -999 0.020803 0.114164 -1.453281
2009-02-06 08:55:52 51°16.907 2°42.942 -999 0.020803 0.114164 -1.418457
2009-02-06 08:55:57 51°16.913 2°42.919 -999 0.020803 0.114164 -1.418457
2009-02-06 08:56:02 51°16.921 2°42.896 -999 0.021112 0.115838 -1.418457
2009-02-06 08:56:07 51°16.928 2°42.873 -999 0.021318 0.116957 -1.418457
2009-02-06 08:56:12 51°16.935 2°42.85 -999 0.021215 0.116392 -1.418457
2009-02-06 08:56:17 51°16.942 2°42.828 -999 0.021524 0.118068 -1.418457
2009-02-06 08:56:23 51°16.951 2°42.8 -999 0.021318 0.116944 -1.418457
2009-02-06 08:56:27 51°16.957 2°42.783 -999 0.021318 0.116944 -1.418457
2009-02-06 08:56:32 51°16.964 2°42.76 -999 0.021215 0.116386 -1.418457
2009-02-06 08:56:37 51°16.971 2°42.737 -999 0.021009 0.115271 -1.453281
2009-02-06 08:56:42 51°16.978 2°42.714 -999 0.021626 0.118616 -1.453281
2009-02-06 08:56:47 51°16.985 2°42.692 -999 0.021318 0.116938 -1.418457
2009-02-06 08:56:52 51°16.992 2°42.669 -999 0.021729 0.119159 -1.418457
2009-02-06 08:56:57 51°16.999 2°42.646 -999 0.021729 0.119159 -1.418457
2009-02-06 08:57:02 51°17.006 2°42.624 -999 0.021215 0.116335 -1.418457
2009-02-06 08:57:07 51°17.013 2°42.601 -999 0.021215 0.11636 -1.418457
2009-02-06 08:57:12 51°17.02 2°42.578 -999 0.021112 0.115808 -1.418457
2009-02-06 08:57:17 51°17.027 2°42.556 -999 0.021112 0.115804 -1.418457
2009-02-06 08:57:22 51°17.034 2°42.533 -999 0.021009 0.115247 -1.418457
2009-02-06 08:57:27 51°17.041 2°42.51 -999 0.021009 0.115247 -1.418457
2009-02-06 08:57:32 51°17.048 2°42.487 -999 0.020906 0.114689 -1.418457
2009-02-06 08:57:37 51°17.055 2°42.465 -999 0.021112 0.115804 -1.453281
2009-02-06 08:57:43 51°17.064 2°42.437 -999 0.021215 0.116361 -1.418457
2009-02-06 08:57:47 51°17.069 2°42.419 -999 0.021009 0.115239 -1.418457
2009-02-06 08:57:52 51°17.077 2°42.396 -999 0.021318 0.116919 -1.453281
2009-02-06 08:57:57 51°17.083 2°42.373 -999 0.021318 0.116919 -1.453281
2009-02-06 08:58:02 51°17.091 2°42.35 -999 0.021318 0.116913 -1.418457
2009-02-06 08:58:07 51°17.097 2°42.327 -999 0.021009 0.115237 -1.418457
2009-02-06 08:58:12 51°17.104 2°42.304 -999 0.021009 0.115226 -1.418457
2009-02-06 08:58:17 51°17.11 2°42.28 -999 0.021626 0.118579 -1.418457
2009-02-06 08:58:23 51°17.119 2°42.252 -999 0.020803 0.114106 -1.418457
2009-02-06 08:58:27 51°17.124 2°42.233 -999 0.020803 0.114106 -1.418457
2009-02-06 08:58:32 51°17.132 2°42.21 -999 0.020803 0.114093 -1.418457
2009-02-06 08:58:37 51°17.139 2°42.187 -999 0.020803 0.11409 -1.418457
2009-02-06 08:58:43 51°17.148 2°42.159 -999 0.020906 0.114652 -1.418457
2009-02-06 08:58:47 51°17.154 2°42.14 -999 0.021009 0.115213 -1.418457
2009-02-06 08:58:52 51°17.161 2°42.116 -999 0.021112 0.11577 -1.418457
2009-02-06 08:58:57 51°17.169 2°42.093 -999 0.021112 0.11577 -1.418457
2009-02-06 08:59:02 51°17.176 2°42.069 -999 0.021112 0.115766 -1.453281
2009-02-06 08:59:07 51°17.183 2°42.046 -999 0.021112 0.115768 -1.418457
2009-02-06 08:59:12 51°17.19 2°42.022 -999 0.021215 0.11632 -1.453281
2009-02-06 08:59:17 51°17.198 2°41.999 -999 0.020906 0.114647 -1.418457
2009-02-06 08:59:22 51°17.205 2°41.975 -999 0.020597 0.112971 -1.418457
2009-02-06 08:59:27 51°17.213 2°41.951 -999 0.020597 0.112971 -1.418457
2009-02-06 08:59:32 51°17.22 2°41.927 -999 0.0207 0.113522 -1.453281
2009-02-06 08:59:37 51°17.227 2°41.904 -999 0.020803 0.114075 -1.418457
2009-02-06 08:59:42 51°17.234 2°41.88 -999 0.020289 0.11129 -1.418457
2009-02-06 08:59:47 51°17.242 2°41.856 -999 0.020803 0.114069 -1.418457
2009-02-06 08:59:52 51°17.249 2°41.833 -999 0.021215 0.116312 -1.418457
2009-02-06 08:59:57 51°17.256 2°41.809 -999 0.021215 0.116312 -1.418457
2009-02-06 09:00:02 51°17.263 2°41.785 -999 0.021009 0.115198 -1.418457
2009-02-06 09:00:07 51°17.269 2°41.761 -999 0.021112 0.115755 -1.418457
2009-02-06 09:00:12 51°17.276 2°41.737 -999 0.0207 0.113522 -1.418457
2009-02-06 09:00:17 51°17.282 2°41.713 -999 0.021626 0.118541 -1.418457
2009-02-06 09:00:22 51°17.288 2°41.69 -999 0.021215 0.116324 -1.418457
2009-02-06 09:00:27 51°17.293 2°41.665 -999 0.021215 0.116324 -1.418457
2009-02-06 09:00:32 51°17.299 2°41.64 -999 0.020597 0.112958 -1.418457
2009-02-06 09:00:37 51°17.303 2°41.616 -999 0.0207 0.113502 -1.418457
2009-02-06 09:00:43 51°17.309 2°41.586 -999 0.020906 0.114609 -1.418457
2009-02-06 09:00:47 51°17.312 2°41.566 -999 0.020906 0.114607 -1.418457
2009-02-06 09:00:52 51°17.317 2°41.541 -999 0.020906 0.114607 -1.418457
2009-02-06 09:00:57 51°17.321 2°41.517 -999 0.020906 0.114607 -1.418457
2009-02-06 09:01:03 51°17.325 2°41.487 -999 0.0207 0.113496 -1.418457
2009-02-06 09:01:07 51°17.328 2°41.467 -999 0.0207 0.113496 -1.418457
2009-02-06 09:01:12 51°17.331 2°41.442 -999 0.020803 0.114056 -1.418457
2009-02-06 09:01:17 51°17.334 2°41.417 -999 0.020495 0.112375 -1.418457
2009-02-06 09:01:22 51°17.336 2°41.391 -999 0.020392 0.111817 -1.418457
2009-02-06 09:01:27 51°17.339 2°41.366 -999 0.020392 0.111817 -1.418457
2009-02-06 09:01:32 51°17.341 2°41.341 -999 0.020803 0.11404 -1.418457
2009-02-06 09:01:37 51°17.344 2°41.316 -999 0.020289 0.111249 -1.418457
2009-02-06 09:01:42 51°17.346 2°41.29 -999 0.020495 0.112358 -1.418457
2009-02-06 09:01:47 51°17.349 2°41.265 -999 0.020289 0.111236 -1.418457
2009-02-06 09:01:52 51°17.351 2°41.24 -999 0.020289 0.111232 -1.418457
2009-02-06 09:01:57 51°17.354 2°41.215 -999 0.020289 0.111232 -1.418457
2009-02-06 09:02:02 51°17.356 2°41.189 -999 0.020495 0.112342 -1.418457
2009-02-06 09:02:07 51°17.359 2°41.164 -999 0.020495 0.11234 -1.418457
2009-02-06 09:02:12 51°17.361 2°41.139 -999 0.020392 0.111784 -1.418457
2009-02-06 09:02:17 51°17.364 2°41.113 -999 0.020495 0.112344 -1.418457
2009-02-06 09:02:22 51°17.367 2°41.088 -999 0.020392 0.111784 -1.418457
2009-02-06 09:02:27 51°17.369 2°41.063 -999 0.020392 0.111784 -1.418457
2009-02-06 09:02:32 51°17.372 2°41.037 -999 0.0207 0.113454 -1.418457
2009-02-06 09:02:37 51°17.375 2°41.012 -999 0.0207 0.113454 -1.418457
2009-02-06 09:02:43 51°17.379 2°40.981 -999 0.020597 0.112885 -1.418457
2009-02-06 09:02:47 51°17.381 2°40.961 -999 0.020803 0.113999 -1.418457
2009-02-06 09:02:52 51°17.384 2°40.935 -999 0.020597 0.112885 -1.418457
2009-02-06 09:02:57 51°17.387 2°40.91 -999 0.020597 0.112885 -1.418457
2009-02-06 09:03:03 51°17.39 2°40.88 -999 0.020597 0.112885 -1.418457
2009-02-06 09:03:07 51°17.392 2°40.859 -999 0.020392 0.111772 -1.418457
2009-02-06 09:03:12 51°17.395 2°40.834 -999 0.020392 0.111765 -1.418457
2009-02-06 09:03:17 51°17.398 2°40.808 -999 0.020392 0.111763 -1.418457
2009-02-06 09:03:23 51°17.402 2°40.778 -999 0.020495 0.112317 -1.418457
2009-02-06 09:03:27 51°17.404 2°40.757 -999 0.020495 0.112317 -1.418457
2009-02-06 09:03:32 51°17.406 2°40.732 -999 0.020495 0.112317 -1.418457
2009-02-06 09:03:37 51°17.409 2°40.707 -999 0.020289 0.111204 -1.418457
2009-02-06 09:03:42 51°17.411 2°40.681 -999 0.020906 0.114537 -1.418457
2009-02-06 09:03:47 51°17.414 2°40.656 -999 0.020392 0.111741 -1.418457
2009-02-06 09:03:52 51°17.417 2°40.631 -999 0.020392 0.111741 -1.418457
2009-02-06 09:03:57 51°17.42 2°40.606 -999 0.020392 0.111741 -1.418457
2009-02-06 09:04:02 51°17.423 2°40.581 -999 0.020597 0.112858 -1.418457
2009-02-06 09:04:07 51°17.426 2°40.556 -999 0.0207 0.113419 -1.418457
2009-02-06 09:04:12 51°17.428 2°40.53 -999 0.020597 0.112867 -1.418457
2009-02-06 09:04:17 51°17.431 2°40.505 -999 0.0207 0.113417 -1.418457
2009-02-06 09:04:22 51°17.433 2°40.48 -999 0.020597 0.112863 -1.418457
2009-02-06 09:04:27 51°17.435 2°40.455 -999 0.020597 0.112863 -1.418457
2009-02-06 09:04:32 51°17.437 2°40.43 -999 0.020597 0.11286 -1.418457
2009-02-06 09:04:37 51°17.439 2°40.405 -999 0.020392 0.111745 -1.418457
2009-02-06 09:04:42 51°17.441 2°40.38 -999 0.020597 0.11286 -1.418457
2009-02-06 09:04:47 51°17.443 2°40.355 -999 0.020803 0.113968 -1.418457
2009-02-06 09:04:52 51°17.446 2°40.33 -999 0.020803 0.113979 -1.418457
2009-02-06 09:04:57 51°17.448 2°40.305 -999 0.020803 0.113979 -1.418457
2009-02-06 09:05:03 51°17.451 2°40.275 -999 0.020597 0.112849 -1.418457
2009-02-06 09:05:07 51°17.453 2°40.255 -999 0.020392 0.111721 -1.418457
2009-02-06 09:05:12 51°17.456 2°40.23 -999 0.0207 0.113391 -1.418457
2009-02-06 09:05:17 51°17.458 2°40.205 -999 0.020803 0.113947 -1.418457
2009-02-06 09:05:23 51°17.462 2°40.176 -999 0.020495 0.112266 -1.418457
2009-02-06 09:05:27 51°17.465 2°40.156 -999 0.020495 0.112266 -1.418457
2009-02-06 09:05:32 51°17.468 2°40.131 -999 0.020495 0.112268 -1.418457
2009-02-06 09:05:37 51°17.471 2°40.107 -999 0.020803 0.11394 -1.418457
2009-02-06 09:05:43 51°17.475 2°40.077 -999 0.020597 0.112834 -1.418457
2009-02-06 09:05:47 51°17.477 2°40.057 -999 0.020289 0.111153 -1.418457
2009-02-06 09:05:52 51°17.48 2°40.032 -999 0.020495 0.112255 -1.418457
2009-02-06 09:05:57 51°17.483 2°40.008 -999 0.020495 0.112255 -1.418457
2009-02-06 09:06:02 51°17.486 2°39.983 -999 0.020803 0.113936 -1.418457
2009-02-06 09:06:07 51°17.489 2°39.959 -999 0.0207 0.113377 -1.453281
2009-02-06 09:06:12 51°17.492 2°39.934 -999 0.020495 0.11226 -1.418457
2009-02-06 09:06:17 51°17.496 2°39.91 -999 0.020392 0.111703 -1.418457
2009-02-06 09:06:22 51°17.498 2°39.885 -999 0.020392 0.111694 -1.418457
2009-02-06 09:06:27 51°17.501 2°39.861 -999 0.020392 0.111694 -1.418457
2009-02-06 09:06:32 51°17.504 2°39.836 -999 0.020597 0.112803 -1.418457
2009-02-06 09:06:37 51°17.507 2°39.812 -999 0.020597 0.11279 -1.418457
2009-02-06 09:06:42 51°17.51 2°39.787 -999 0.020495 0.112233 -1.418457
2009-02-06 09:06:47 51°17.513 2°39.762 -999 0.0207 0.11334 -1.418457
2009-02-06 09:06:52 51°17.516 2°39.738 -999 0.020597 0.112792 -1.418457
2009-02-06 09:06:57 51°17.519 2°39.714 -999 0.020597 0.112792 -1.418457
2009-02-06 09:07:03 51°17.522 2°39.684 -999 0.020392 0.111669 -1.418457
2009-02-06 09:07:07 51°17.524 2°39.665 -999 0.020495 0.11222 -1.418457
2009-02-06 09:07:12 51°17.527 2°39.641 -999 0.020289 0.111107 -1.418457
2009-02-06 09:07:17 51°17.53 2°39.616 -999 0.020597 0.112765 -1.418457
2009-02-06 09:07:23 51°17.534 2°39.587 -999 0.0207 0.113311 -1.418457
2009-02-06 09:07:27 51°17.537 2°39.568 -999 0.0207 0.113311 -1.418457
2009-02-06 09:07:32 51°17.54 2°39.543 -999 0.020495 0.112195 -1.418457
2009-02-06 09:07:37 51°17.543 2°39.519 -999 0.020289 0.111075 -1.418457
2009-02-06 09:07:43 51°17.546 2°39.49 -999 0.020392 0.111622 -1.418457
2009-02-06 09:07:47 51°17.549 2°39.471 -999 0.020597 0.112741 -1.418457
2009-02-06 09:07:52 51°17.552 2°39.446 -999 0.021009 0.114974 -1.418457
2009-02-06 09:07:57 51°17.555 2°39.422 -999 0.021009 0.114974 -1.418457
2009-02-06 09:08:02 51°17.558 2°39.397 -999 0.020597 0.112756 -1.418457
2009-02-06 09:08:07 51°17.561 2°39.373 -999 0.0207 0.113311 -1.418457
2009-02-06 09:08:12 51°17.562 2°39.349 -999 0.020186 0.110533 -1.418457
2009-02-06 09:08:17 51°17.566 2°39.324 -999 0.020289 0.111073 -1.418457
2009-02-06 09:08:22 51°17.568 2°39.3 -999 0.01998 0.109394 -1.418457
2009-02-06 09:08:27 51°17.572 2°39.276 -999 0.01998 0.109394 -1.418457
2009-02-06 09:08:32 51°17.574 2°39.251 -999 0.020083 0.109939 -1.418457
2009-02-06 09:08:37 51°17.578 2°39.227 -999 0.01998 0.109378 -1.418457
2009-02-06 09:08:42 51°17.58 2°39.202 -999 0.020083 0.109934 -1.418457
2009-02-06 09:08:47 51°17.584 2°39.178 -999 0.020289 0.111039 -1.418457
2009-02-06 09:08:52 51°17.587 2°39.154 -999 0.020803 0.113835 -1.418457
2009-02-06 09:08:57 51°17.59 2°39.129 -999 0.020803 0.113835 -1.418457
2009-02-06 09:09:02 51°17.593 2°39.105 -999 0.020289 0.111053 -1.418457
2009-02-06 09:09:07 51°17.596 2°39.08 -999 0.020289 0.111034 -1.418457
2009-02-06 09:09:12 51°17.599 2°39.055 -999 0.020289 0.111032 -1.418457
2009-02-06 09:09:17 51°17.601 2°39.031 -999 0.020186 0.110476 -1.418457
2009-02-06 09:09:23 51°17.604 2°39.001 -999 0.020083 0.109911 -1.418457
2009-02-06 09:09:27 51°17.606 2°38.982 -999 0.020083 0.109911 -1.418457
2009-02-06 09:09:32 51°17.609 2°38.957 -999 0.020392 0.111566 -1.418457
2009-02-06 09:09:37 51°17.611 2°38.932 -999 0.020186 0.110446 -1.418457
2009-02-06 09:09:43 51°17.615 2°38.903 -999 0.01998 0.109331 -1.418457
2009-02-06 09:09:47 51°17.617 2°38.883 -999 0.01998 0.109329 -1.418457
2009-02-06 09:09:52 51°17.62 2°38.858 -999 0.020495 0.112103 -1.418457
2009-02-06 09:09:57 51°17.623 2°38.834 -999 0.020495 0.112103 -1.418457
2009-02-06 09:10:03 51°17.626 2°38.804 -999 0.020083 0.109879 -1.418457
2009-02-06 09:10:07 51°17.629 2°38.784 -999 0.020186 0.110417 -1.418457
2009-02-06 09:10:12 51°17.631 2°38.759 -999 0.020186 0.11043 -1.418457
2009-02-06 09:10:17 51°17.635 2°38.735 -999 0.020083 0.109869 -1.418457
2009-02-06 09:10:22 51°17.638 2°38.71 -999 0.020083 0.109878 -1.418457
2009-02-06 09:10:27 51°17.641 2°38.685 -999 0.020083 0.109878 -1.418457
2009-02-06 09:10:32 51°17.644 2°38.661 -999 0.01998 0.10932 -1.418457
2009-02-06 09:10:37 51°17.646 2°38.636 -999 0.020186 0.110424 -1.418457
2009-02-06 09:10:42 51°17.649 2°38.611 -999 0.01998 0.10931 -1.418457
2009-02-06 09:10:47 51°17.652 2°38.586 -999 0.020083 0.109867 -1.418457
2009-02-06 09:10:52 51°17.655 2°38.562 -999 0.019877 0.108751 -1.418457
2009-02-06 09:10:57 51°17.658 2°38.537 -999 0.019877 0.108751 -1.418457
2009-02-06 09:11:02 51°17.661 2°38.512 -999 0.020186 0.110417 -1.418457
2009-02-06 09:11:07 51°17.665 2°38.487 -999 0.019774 0.108189 -1.418457
2009-02-06 09:11:12 51°17.668 2°38.463 -999 0.020083 0.109851 -1.418457
2009-02-06 09:11:17 51°17.671 2°38.438 -999 0.020083 0.109848 -1.418457
2009-02-06 09:11:23 51°17.675 2°38.408 -999 0.01998 0.109289 -1.418457
2009-02-06 09:11:27 51°17.677 2°38.388 -999 0.01998 0.109289 -1.418457
2009-02-06 09:11:32 51°17.68 2°38.364 -999 0.020083 0.109849 -1.418457
2009-02-06 09:11:37 51°17.683 2°38.339 -999 0.019774 0.108172 -1.418457
2009-02-06 09:11:43 51°17.687 2°38.309 -999 0.020083 0.109846 -1.418457
2009-02-06 09:11:47 51°17.689 2°38.289 -999 0.01998 0.109294 -1.418457
2009-02-06 09:11:52 51°17.692 2°38.265 -999 0.01998 0.109292 -1.418457
2009-02-06 09:11:57 51°17.696 2°38.24 -999 0.01998 0.109292 -1.418457
2009-02-06 09:12:03 51°17.699 2°38.21 -999 0.019774 0.108168 -1.418457
2009-02-06 09:12:07 51°17.702 2°38.19 -999 0.020186 0.110385 -1.418457
2009-02-06 09:12:12 51°17.706 2°38.166 -999 0.01998 0.109287 -1.418457
2009-02-06 09:12:17 51°17.709 2°38.141 -999 0.01998 0.109291 -1.418457
2009-02-06 09:12:23 51°17.713 2°38.111 -999 0.019774 0.108181 -1.418457
2009-02-06 09:12:27 51°17.716 2°38.091 -999 0.019774 0.108181 -1.418457
2009-02-06 09:12:32 51°17.719 2°38.067 -999 0.019774 0.108177 -1.418457
2009-02-06 09:12:37 51°17.723 2°38.042 -999 0.019877 0.108727 -1.418457
2009-02-06 09:12:42 51°17.727 2°38.017 -999 0.020289 0.110955 -1.418457
2009-02-06 09:12:47 51°17.731 2°37.993 -999 0.020186 0.110394 -1.418457
2009-02-06 09:12:52 51°17.735 2°37.968 -999 0.020083 0.109825 -1.418457
2009-02-06 09:12:57 51°17.74 2°37.944 -999 0.020083 0.109825 -1.418457
2009-02-06 09:13:02 51°17.744 2°37.919 -999 0.01998 0.109266 -1.418457
2009-02-06 09:13:07 51°17.748 2°37.894 -999 0.020083 0.109823 -1.418457
2009-02-06 09:13:12 51°17.752 2°37.869 -999 0.019877 0.108711 -1.418457
2009-02-06 09:13:17 51°17.756 2°37.845 -999 0.020083 0.109814 -1.418457
2009-02-06 09:13:22 51°17.76 2°37.82 -999 0.020186 0.110376 -1.418457
2009-02-06 09:13:27 51°17.764 2°37.795 -999 0.020186 0.110376 -1.418457
2009-02-06 09:13:32 51°17.768 2°37.77 -999 0.020083 0.109814 -1.418457
2009-02-06 09:13:37 51°17.772 2°37.746 -999 0.020186 0.110369 -1.418457
2009-02-06 09:13:43 51°17.777 2°37.716 -999 0.019877 0.108709 -1.418457
2009-02-06 09:13:47 51°17.78 2°37.697 -999 0.019671 0.107593 -1.418457
2009-02-06 09:13:52 51°17.784 2°37.673 -999 0.019774 0.108153 -1.418457
2009-02-06 09:13:57 51°17.788 2°37.649 -999 0.019774 0.108153 -1.418457
2009-02-06 09:14:02 51°17.792 2°37.624 -999 0.019774 0.108158 -1.418457
2009-02-06 09:14:07 51°17.796 2°37.6 -999 0.019877 0.108725 -1.418457
2009-02-06 09:14:12 51°17.799 2°37.576 -999 0.020186 0.110399 -1.418457
2009-02-06 09:14:17 51°17.803 2°37.551 -999 0.019774 0.108168 -1.418457
2009-02-06 09:14:23 51°17.808 2°37.521 -999 0.019877 0.108713 -1.418457
2009-02-06 09:14:27 51°17.812 2°37.502 -999 0.019877 0.108713 -1.418457
2009-02-06 09:14:32 51°17.815 2°37.477 -999 0.020186 0.110382 -1.418457
2009-02-06 09:14:37 51°17.82 2°37.452 -999 0.019877 0.108715 -1.418457
2009-02-06 09:14:42 51°17.823 2°37.427 -999 0.019774 0.108155 -1.418457
2009-02-06 09:14:47 51°17.827 2°37.402 -999 0.019774 0.108136 -1.418457
2009-02-06 09:14:52 51°17.831 2°37.377 -999 0.019877 0.108682 -1.418457
2009-02-06 09:14:57 51°17.835 2°37.352 -999 0.019877 0.108682 -1.418457
2009-02-06 09:15:02 51°17.84 2°37.327 -999 0.01998 0.109243 -1.418457
2009-02-06 09:15:07 51°17.844 2°37.302 -999 0.01998 0.109252 -1.418457
2009-02-06 09:15:12 51°17.847 2°37.277 -999 0.019671 0.107588 -1.418457
2009-02-06 09:15:17 51°17.852 2°37.253 -999 0.019774 0.108134 -1.418457
2009-02-06 09:15:22 51°17.856 2°37.227 -999 0.019774 0.108132 -1.418457
2009-02-06 09:15:27 51°17.86 2°37.202 -999 0.019774 0.108132 -1.418457
2009-02-06 09:15:32 51°17.865 2°37.177 -999 0.01998 0.109256 -1.418457
2009-02-06 09:15:37 51°17.869 2°37.152 -999 0.020083 0.10983 -1.418457
2009-02-06 09:15:43 51°17.874 2°37.122 -999 0.019774 0.108153 -1.418457
2009-02-06 09:15:47 51°17.877 2°37.102 -999 0.019877 0.108702 -1.418457
2009-02-06 09:15:52 51°17.881 2°37.077 -999 0.01998 0.109243 -1.418457
2009-02-06 09:15:57 51°17.885 2°37.052 -999 0.01998 0.109243 -1.418457
2009-02-06 09:16:02 51°17.889 2°37.027 -999 0.020186 0.110366 -1.418457
2009-02-06 09:16:07 51°17.893 2°37.002 -999 0.019877 0.108695 -1.418457
2009-02-06 09:16:12 51°17.896 2°36.977 -999 0.01998 0.109254 -1.418457
2009-02-06 09:16:17 51°17.9 2°36.952 -999 0.020392 0.111477 -1.418457
2009-02-06 09:16:23 51°17.903 2°36.921 -999 0.019877 0.108692 -1.418457
2009-02-06 09:16:27 51°17.906 2°36.902 -999 0.019877 0.108692 -1.418457
2009-02-06 09:16:32 51°17.909 2°36.876 -999 0.019671 0.107573 -1.418457
2009-02-06 09:16:37 51°17.912 2°36.851 -999 0.01998 0.10924 -1.418457
2009-02-06 09:16:43 51°17.916 2°36.821 -999 0.019671 0.107585 -1.418457
2009-02-06 09:16:47 51°17.919 2°36.801 -999 0.019568 0.107022 -1.418457
2009-02-06 09:16:52 51°17.923 2°36.776 -999 0.019671 0.107574 -1.418457
2009-02-06 09:16:57 51°17.926 2°36.751 -999 0.019671 0.107574 -1.418457
2009-02-06 09:17:03 51°17.93 2°36.721 -999 0.019568 0.107001 -1.418457
2009-02-06 09:17:07 51°17.934 2°36.701 -999 0.019568 0.107003 -1.418457
2009-02-06 09:17:12 51°17.937 2°36.676 -999 0.019568 0.107005 -1.418457
2009-02-06 09:17:17 51°17.941 2°36.651 -999 0.019877 0.108673 -1.418457
2009-02-06 09:17:22 51°17.945 2°36.626 -999 0.019568 0.107003 -1.418457
2009-02-06 09:17:27 51°17.949 2°36.601 -999 0.019568 0.107003 -1.418457
2009-02-06 09:17:32 51°17.953 2°36.576 -999 0.019671 0.107554 -1.418457
2009-02-06 09:17:37 51°17.957 2°36.551 -999 0.019568 0.106998 -1.418457
2009-02-06 09:17:42 51°17.961 2°36.526 -999 0.019568 0.106996 -1.418457
2009-02-06 09:17:47 51°17.965 2°36.501 -999 0.019774 0.108113 -1.418457
2009-02-06 09:17:52 51°17.969 2°36.477 -999 0.019877 0.108668 -1.418457
2009-02-06 09:17:57 51°17.973 2°36.452 -999 0.019877 0.108668 -1.418457
2009-02-06 09:18:02 51°17.978 2°36.427 -999 0.019671 0.107567 -1.418457
2009-02-06 09:18:07 51°17.982 2°36.402 -999 0.019671 0.107555 -1.418457
2009-02-06 09:18:12 51°17.986 2°36.378 -999 0.019877 0.108662 -1.418457
2009-02-06 09:18:17 51°17.99 2°36.353 -999 0.01998 0.109222 -1.418457
2009-02-06 09:18:22 51°17.994 2°36.329 -999 0.020083 0.109793 -1.418457
2009-02-06 09:18:27 51°17.997 2°36.304 -999 0.020083 0.109793 -1.418457
2009-02-06 09:18:32 51°18.001 2°36.279 -999 0.020083 0.109797 -1.418457
2009-02-06 09:18:37 51°18.004 2°36.255 -999 0.019568 0.107003 -1.418457
2009-02-06 09:18:43 51°18.008 2°36.225 -999 0.019568 0.106991 -1.418457
2009-02-06 09:18:47 51°18.011 2°36.205 -999 0.019774 0.108092 -1.418457
2009-02-06 09:18:52 51°18.015 2°36.18 -999 0.019568 0.106986 -1.418457
2009-02-06 09:18:57 51°18.019 2°36.156 -999 0.019568 0.106986 -1.418457
2009-02-06 09:19:03 51°18.023 2°36.126 -999 0.019671 0.107542 -1.418457
2009-02-06 09:19:07 51°18.026 2°36.107 -999 0.019671 0.107545 -1.418457
2009-02-06 09:19:12 51°18.029 2°36.082 -999 0.019568 0.106989 -1.418457
2009-02-06 09:19:17 51°18.033 2°36.058 -999 0.019465 0.106444 -1.418457
2009-02-06 09:19:22 51°18.036 2°36.033 -999 0.019671 0.107545 -1.418457
2009-02-06 09:19:27 51°18.04 2°36.009 -999 0.019671 0.107545 -1.418457
2009-02-06 09:19:32 51°18.045 2°35.984 -999 0.01998 0.10921 -1.418457
2009-02-06 09:19:37 51°18.048 2°35.96 -999 0.019877 0.108666 -1.418457
2009-02-06 09:19:42 51°18.052 2°35.935 -999 0.019465 0.106437 -1.418457
2009-02-06 09:19:47 51°18.056 2°35.91 -999 0.019671 0.107535 -1.418457
2009-02-06 09:19:52 51°18.059 2°35.886 -999 0.019774 0.108098 -1.418457
2009-02-06 09:19:57 51°18.062 2°35.861 -999 0.019774 0.108098 -1.418457
2009-02-06 09:20:02 51°18.066 2°35.836 -999 0.019877 0.108659 -1.418457
2009-02-06 09:20:07 51°18.069 2°35.811 -999 0.019568 0.106998 -1.418457
2009-02-06 09:20:12 51°18.072 2°35.786 -999 0.019568 0.106984 -1.418457
2009-02-06 09:20:17 51°18.075 2°35.761 -999 0.019465 0.10642 -1.418457
2009-02-06 09:20:22 51°18.078 2°35.736 -999 0.019465 0.106424 -1.418457
2009-02-06 09:20:27 51°18.081 2°35.711 -999 0.019465 0.106424 -1.418457
2009-02-06 09:20:32 51°18.085 2°35.686 -999 0.019465 0.10642 -1.418457
2009-02-06 09:20:37 51°18.089 2°35.661 -999 0.019363 0.105867 -1.418457
2009-02-06 09:20:42 51°18.093 2°35.637 -999 0.019363 0.10586 -1.418457
2009-02-06 09:20:47 51°18.098 2°35.612 -999 0.020392 0.111412 -1.418457
2009-02-06 09:20:52 51°18.104 2°35.588 -999 0.020392 0.111457 -1.418457
2009-02-06 09:20:58 51°18.111 2°35.56 -999 0.020597 0.11259 -1.418457
2009-02-06 09:21:03 51°18.118 2°35.536 -999 0.020597 0.11259 -1.418457
2009-02-06 09:21:07 51°18.124 2°35.517 -999 0.020289 0.110927 -1.418457
2009-02-06 09:21:12 51°18.131 2°35.494 -999 0.020289 0.110925 -1.418457
2009-02-06 09:21:17 51°18.139 2°35.472 -999 0.01998 0.109242 -1.418457
2009-02-06 09:21:23 51°18.149 2°35.445 -999 0.019671 0.107564 -1.418457
2009-02-06 09:21:27 51°18.156 2°35.427 -999 0.019671 0.107564 -1.418457
2009-02-06 09:21:32 51°18.164 2°35.404 -999 0.019568 0.107008 -1.418457
2009-02-06 09:21:37 51°18.173 2°35.382 -999 0.019465 0.106458 -1.418457
2009-02-06 09:21:42 51°18.182 2°35.36 -999 0.019465 0.106454 -1.418457
2009-02-06 09:21:47 51°18.191 2°35.338 -999 0.019671 0.107578 -1.418457
2009-02-06 09:21:52 51°18.201 2°35.317 -999 0.019465 0.106478 -1.418457
2009-02-06 09:21:57 51°18.21 2°35.295 -999 0.019465 0.106478 -1.418457
2009-02-06 09:22:02 51°18.219 2°35.274 -999 0.019363 0.105924 -1.418457
2009-02-06 09:22:07 51°18.229 2°35.253 -999 0.019465 0.106476 -1.418457
2009-02-06 09:22:12 51°18.238 2°35.231 -999 0.019363 0.105926 -1.418457
2009-02-06 09:22:17 51°18.247 2°35.209 -999 0.019465 0.106476 -1.418457
2009-02-06 09:22:22 51°18.257 2°35.188 -999 0.019465 0.106475 -1.418457
2009-02-06 09:22:27 51°18.267 2°35.167 -999 0.019465 0.106475 -1.418457
2009-02-06 09:22:32 51°18.276 2°35.145 -999 0.019363 0.105921 -1.418457
2009-02-06 09:22:37 51°18.286 2°35.125 -999 0.019465 0.106461 -1.418457
2009-02-06 09:22:42 51°18.295 2°35.103 -999 0.019568 0.107022 -1.418457
2009-02-06 09:22:47 51°18.305 2°35.082 -999 0.019568 0.107035 -1.418457
2009-02-06 09:22:52 51°18.314 2°35.061 -999 0.019465 0.106492 -1.418457
2009-02-06 09:22:57 51°18.324 2°35.039 -999 0.019465 0.106492 -1.418457
2009-02-06 09:23:03 51°18.335 2°35.013 -999 0.019363 0.105939 -1.418457
2009-02-06 09:23:07 51°18.342 2°34.996 -999 0.019363 0.105948 -1.418457
2009-02-06 09:23:12 51°18.351 2°34.975 -999 0.019363 0.105958 -1.418457
2009-02-06 09:23:17 51°18.361 2°34.953 -999 0.019363 0.105968 -1.418457
2009-02-06 09:23:23 51°18.372 2°34.927 -999 0.019363 0.105961 -1.418457
2009-02-06 09:23:27 51°18.38 2°34.91 -999 0.019363 0.105961 -1.418457
2009-02-06 09:23:32 51°18.388 2°34.888 -999 0.019363 0.105963 -1.418457
2009-02-06 09:23:37 51°18.398 2°34.867 -999 0.019363 0.105966 -1.418457
2009-02-06 09:23:43 51°18.408 2°34.84 -999 0.019363 0.105968 -1.418457
2009-02-06 09:23:47 51°18.415 2°34.823 -999 0.019363 0.105971 -1.418457
2009-02-06 09:23:52 51°18.424 2°34.8 -999 0.019363 0.105953 -1.418457
2009-02-06 09:23:57 51°18.432 2°34.778 -999 0.019363 0.105953 -1.418457
2009-02-06 09:24:02 51°18.441 2°34.755 -999 0.01926 0.105399 -1.418457
2009-02-06 09:24:07 51°18.45 2°34.733 -999 0.01926 0.105404 -1.418457
2009-02-06 09:24:12 51°18.459 2°34.712 -999 0.01926 0.105432 -1.418457
2009-02-06 09:24:17 51°18.468 2°34.689 -999 0.019465 0.106571 -1.418457
2009-02-06 09:24:22 51°18.477 2°34.668 -999 0.019363 0.105997 -1.418457
2009-02-06 09:24:27 51°18.486 2°34.645 -999 0.019363 0.105993 -1.418457
2009-02-06 09:24:32 51°18.496 2°34.624 -999 0.019363 0.105993 -1.418457
2009-02-06 09:24:37 51°18.505 2°34.601 -999 0.019568 0.107138 -1.418457
2009-02-06 09:24:42 51°18.514 2°34.579 -999 0.019363 0.106061 -1.418457
2009-02-06 09:24:47 51°18.523 2°34.557 -999 0.019363 0.106084 -1.418457
2009-02-06 09:24:52 51°18.532 2°34.535 -999 0.019363 0.106108 -1.418457
2009-02-06 09:24:57 51°18.541 2°34.513 -999 0.019363 0.106108 -1.418457
2009-02-06 09:25:02 51°18.551 2°34.491 -999 0.019363 0.106123 -1.418457
2009-02-06 09:25:07 51°18.559 2°34.469 -999 0.019363 0.106125 -1.418457
2009-02-06 09:25:12 51°18.568 2°34.448 -999 0.01926 0.105552 -1.418457
2009-02-06 09:25:17 51°18.577 2°34.425 -999 0.01926 0.105546 -1.418457
2009-02-06 09:25:23 51°18.588 2°34.399 -999 0.01926 0.105555 -1.418457
2009-02-06 09:25:27 51°18.595 2°34.381 -999 0.01926 0.105555 -1.418457
2009-02-06 09:25:32 51°18.604 2°34.359 -999 0.019465 0.106685 -1.418457
2009-02-06 09:25:37 51°18.613 2°34.337 -999 0.019363 0.106091 -1.418457
2009-02-06 09:25:43 51°18.624 2°34.311 -999 0.019363 0.106086 -1.418457
2009-02-06 09:25:47 51°18.631 2°34.293 -999 0.019568 0.107224 -1.418457
2009-02-06 09:25:52 51°18.639 2°34.27 -999 0.019363 0.106137 -1.418457
2009-02-06 09:25:57 51°18.647 2°34.247 -999 0.019363 0.106137 -1.418457
2009-02-06 09:26:03 51°18.656 2°34.22 -999 0.019363 0.10613 -1.418457
2009-02-06 09:26:07 51°18.662 2°34.201 -999 0.019363 0.106162 -1.418457
2009-02-06 09:26:12 51°18.67 2°34.178 -999 0.019363 0.106164 -1.418457
2009-02-06 09:26:17 51°18.677 2°34.155 -999 0.019363 0.106164 -1.418457
2009-02-06 09:26:22 51°18.684 2°34.131 -999 0.019363 0.106159 -1.418457
2009-02-06 09:26:27 51°18.69 2°34.107 -999 0.019363 0.106159 -1.418457
2009-02-06 09:26:32 51°18.696 2°34.084 -999 0.019363 0.106152 -1.418457